Observation data for Panhandle on 07/11/2020      Previous  Date  Next       Current Mesonet Observations  Soil Data  Daily Summary Page  Observations in Plain Language
KPA1 110500Z 14010KT 26/19 A3009 RMK A01 T02620193  RH  066%=      5-min Rain = 0
KPA1 110501Z 13010KT 26/19 A3009 RMK A01 T02620193  RH  066%=      5-min Rain = 0
KPA1 110502Z 13010KT 26/19 A3009 RMK A01 T02620194  RH  066%=      5-min Rain = 0
KPA1 110503Z 13010KT 26/19 A3009 RMK A01 T02620194  RH  066%=      5-min Rain = 0
KPA1 110504Z 13010KT 26/19 A3009 RMK A01 T02620194  RH  066%=      5-min Rain = 0
KPA1 110505Z 13009KT 26/19 A3009 RMK A01 T02620194  RH  066%=      5-min Rain = 0
KPA1 110506Z 13010KT 26/19 A3009 RMK A01 T02610194  RH  066%=      5-min Rain = 0
KPA1 110507Z 13010KT 26/19 A3009 RMK A01 T02620194  RH  066%=      5-min Rain = 0
KPA1 110508Z 13009KT 26/19 A3009 RMK A01 T02610194  RH  067%=      5-min Rain = 0
KPA1 110509Z 13011KT 26/19 A3009 RMK A01 T02610194  RH  067%=      5-min Rain = 0
KPA1 110510Z 13009KT 26/19 A3009 RMK A01 T02610194  RH  067%=      5-min Rain = 0
KPA1 110511Z 13010KT 26/20 A3009 RMK A01 T02610195  RH  067%=      5-min Rain = 0
KPA1 110512Z 13011KT 26/20 A3009 RMK A01 T02610195  RH  067%=      5-min Rain = 0
KPA1 110513Z 13010KT 26/20 A3009 RMK A01 T02610195  RH  067%=      5-min Rain = 0
KPA1 110514Z 14011KT 26/20 A3009 RMK A01 T02600195  RH  067%=      5-min Rain = 0
KPA1 110515Z 14011KT 26/20 A3008 RMK A01 T02600195  RH  067%=      5-min Rain = 0
KPA1 110516Z 14010KT 26/20 A3008 RMK A01 T02600195  RH  067%=      5-min Rain = 0
KPA1 110517Z 14011KT 26/20 A3008 RMK A01 T02590195  RH  067%=      5-min Rain = 0
KPA1 110518Z 13010KT 26/20 A3008 RMK A01 T02590195  RH  068%=      5-min Rain = 0
KPA1 110519Z 14011KT 26/20 A3008 RMK A01 T02590195  RH  068%=      5-min Rain = 0
KPA1 110520Z 14010KT 26/20 A3008 RMK A01 T02590195  RH  068%=      5-min Rain = 0
KPA1 110521Z 14010KT 26/20 A3009 RMK A01 T02590195  RH  068%=      5-min Rain = 0
KPA1 110522Z 14010KT 26/20 A3009 RMK A01 T02590195  RH  068%=      5-min Rain = 0
KPA1 110523Z 14010KT 26/20 A3009 RMK A01 T02590195  RH  068%=      5-min Rain = 0
KPA1 110524Z 14009KT 26/20 A3009 RMK A01 T02590195  RH  068%=      5-min Rain = 0
KPA1 110525Z 14010KT 26/20 A3009 RMK A01 T02580195  RH  068%=      5-min Rain = 0
KPA1 110526Z 14009KT 26/20 A3009 RMK A01 T02580195  RH  068%=      5-min Rain = 0
KPA1 110527Z 14011KT 26/20 A3009 RMK A01 T02580195  RH  068%=      5-min Rain = 0
KPA1 110528Z 14011KT 26/20 A3009 RMK A01 T02580195  RH  068%=      5-min Rain = 0
KPA1 110529Z 14011KT 26/20 A3009 RMK A01 T02590195  RH  068%=      5-min Rain = 0
KPA1 110530Z 14011KT 26/20 A3009 RMK A01 T02590195  RH  068%=      5-min Rain = 0
KPA1 110531Z 14010KT 26/20 A3009 RMK A01 T02600195  RH  068%=      5-min Rain = 0
KPA1 110532Z 14010KT 26/20 A3009 RMK A01 T02590195  RH  068%=      5-min Rain = 0
KPA1 110533Z 14011KT 26/20 A3009 RMK A01 T02580195  RH  068%=      5-min Rain = 0
KPA1 110534Z 14011KT 26/20 A3009 RMK A01 T02580195  RH  068%=      5-min Rain = 0
KPA1 110535Z 14011KT 26/20 A3009 RMK A01 T02580195  RH  068%=      5-min Rain = 0
KPA1 110536Z 14011KT 26/20 A3009 RMK A01 T02580195  RH  068%=      5-min Rain = 0
KPA1 110537Z 14010KT 26/20 A3009 RMK A01 T02580195  RH  068%=      5-min Rain = 0
KPA1 110538Z 14010KT 26/20 A3009 RMK A01 T02580195  RH  068%=      5-min Rain = 0
KPA1 110539Z 14012KT 26/20 A3009 RMK A01 T02570195  RH  069%=      5-min Rain = 0
KPA1 110540Z 14011KT 26/20 A3009 RMK A01 T02570195  RH  069%=      5-min Rain = 0
KPA1 110541Z 14011KT 26/20 A3009 RMK A01 T02570195  RH  069%=      5-min Rain = 0
KPA1 110542Z 14011KT 26/20 A3009 RMK A01 T02560195  RH  069%=      5-min Rain = 0
KPA1 110543Z 14011KT 26/20 A3009 RMK A01 T02560195  RH  069%=      5-min Rain = 0
KPA1 110544Z 14010KT 26/20 A3009 RMK A01 T02560196  RH  069%=      5-min Rain = 0
KPA1 110545Z 14011KT 26/20 A3009 RMK A01 T02550195  RH  069%=      5-min Rain = 0
KPA1 110546Z 14010KT 26/20 A3009 RMK A01 T02550195  RH  069%=      5-min Rain = 0
KPA1 110547Z 14011KT 26/20 A3009 RMK A01 T02550196  RH  070%=      5-min Rain = 0
KPA1 110548Z 14010KT 26/20 A3009 RMK A01 T02550196  RH  070%=      5-min Rain = 0
KPA1 110549Z 14010KT 26/20 A3009 RMK A01 T02550195  RH  070%=      5-min Rain = 0
KPA1 110550Z 14010KT 26/20 A3009 RMK A01 T02550195  RH  070%=      5-min Rain = 0
KPA1 110551Z 14009KT 26/20 A3009 RMK A01 T02550195  RH  070%=      5-min Rain = 0
KPA1 110552Z 14010KT 26/20 A3009 RMK A01 T02550196  RH  070%=      5-min Rain = 0
KPA1 110553Z 14011KT 26/20 A3009 RMK A01 T02550195  RH  070%=      5-min Rain = 0
KPA1 110554Z 14010KT 26/20 A3009 RMK A01 T02550195  RH  070%=      5-min Rain = 0
KPA1 110555Z 14011KT 26/20 A3009 RMK A01 T02550196  RH  070%=      5-min Rain = 0
KPA1 110556Z 14011KT 25/20 A3009 RMK A01 T02540195  RH  070%=      5-min Rain = 0
KPA1 110557Z 14010KT 25/20 A3009 RMK A01 T02540196  RH  070%=      5-min Rain = 0
KPA1 110558Z 14009KT 25/20 A3009 RMK A01 T02540196  RH  070%=      5-min Rain = 0
KPA1 110559Z 14010KT 25/20 A3009 RMK A01 T02540196  RH  070%=      5-min Rain = 0
KPA1 110600Z 14009KT 25/20 A3009 RMK A01 T02530196  RH  071%=      5-min Rain = 0
KPA1 110601Z 14009KT 25/20 A3009 RMK A01 T02530196  RH  071%=      5-min Rain = 0
KPA1 110602Z 14009KT 25/20 A3009 RMK A01 T02520196  RH  071%=      5-min Rain = 0
KPA1 110603Z 14009KT 25/20 A3009 RMK A01 T02510196  RH  071%=      5-min Rain = 0
KPA1 110604Z 14009KT 25/20 A3009 RMK A01 T02510196  RH  072%=      5-min Rain = 0
KPA1 110605Z 14009KT 25/20 A3009 RMK A01 T02510196  RH  072%=      5-min Rain = 0
KPA1 110606Z 14009KT 25/20 A3009 RMK A01 T02500196  RH  072%=      5-min Rain = 0
KPA1 110607Z 14010KT 25/20 A3009 RMK A01 T02500196  RH  072%=      5-min Rain = 0
KPA1 110608Z 14010KT 25/20 A3009 RMK A01 T02500196  RH  072%=      5-min Rain = 0
KPA1 110609Z 14009KT 25/20 A3009 RMK A01 T02500195  RH  072%=      5-min Rain = 0
KPA1 110610Z 14009KT 25/20 A3009 RMK A01 T02500196  RH  072%=      5-min Rain = 0
KPA1 110611Z 14008KT 25/20 A3009 RMK A01 T02500196  RH  072%=      5-min Rain = 0
KPA1 110612Z 14009KT 25/20 A3009 RMK A01 T02490196  RH  072%=      5-min Rain = 0
KPA1 110613Z 14008KT 25/20 A3009 RMK A01 T02490196  RH  072%=      5-min Rain = 0
KPA1 110614Z 13010KT 25/20 A3009 RMK A01 T02480196  RH  073%=      5-min Rain = 0
KPA1 110615Z 13009KT 25/20 A3009 RMK A01 T02480196  RH  073%=      5-min Rain = 0
KPA1 110616Z 14009KT 25/20 A3009 RMK A01 T02480196  RH  073%=      5-min Rain = 0
KPA1 110617Z 14009KT 25/20 A3009 RMK A01 T02480196  RH  073%=      5-min Rain = 0
KPA1 110618Z 14009KT 25/20 A3009 RMK A01 T02480196  RH  073%=      5-min Rain = 0
KPA1 110619Z 14009KT 25/20 A3009 RMK A01 T02480196  RH  073%=      5-min Rain = 0
KPA1 110620Z 14008KT 25/20 A3009 RMK A01 T02470196  RH  073%=      5-min Rain = 0
KPA1 110621Z 14009KT 25/20 A3009 RMK A01 T02470196  RH  073%=      5-min Rain = 0
KPA1 110622Z 14009KT 25/20 A3009 RMK A01 T02470196  RH  073%=      5-min Rain = 0
KPA1 110623Z 15009KT 25/20 A3009 RMK A01 T02460196  RH  074%=      5-min Rain = 0
KPA1 110624Z 14008KT 25/20 A3009 RMK A01 T02450196  RH  074%=      5-min Rain = 0
KPA1 110625Z 14009KT 24/20 A3008 RMK A01 T02440196  RH  074%=      5-min Rain = 0
KPA1 110626Z 14009KT 24/20 A3008 RMK A01 T02430196  RH  075%=      5-min Rain = 0
KPA1 110627Z 14009KT 24/20 A3008 RMK A01 T02430196  RH  075%=      5-min Rain = 0
KPA1 110628Z 15008KT 24/20 A3008 RMK A01 T02420196  RH  075%=      5-min Rain = 0
KPA1 110629Z 15009KT 24/20 A3008 RMK A01 T02410196  RH  076%=      5-min Rain = 0
KPA1 110630Z 15009KT 24/20 A3009 RMK A01 T02410196  RH  076%=      5-min Rain = 0
KPA1 110631Z 14009KT 24/20 A3009 RMK A01 T02410196  RH  076%=      5-min Rain = 0
KPA1 110632Z 14008KT 24/20 A3009 RMK A01 T02410196  RH  076%=      5-min Rain = 0
KPA1 110633Z 14008KT 24/20 A3009 RMK A01 T02410196  RH  076%=      5-min Rain = 0
KPA1 110634Z 14009KT 24/20 A3008 RMK A01 T02410196  RH  076%=      5-min Rain = 0
KPA1 110635Z 14009KT 24/20 A3008 RMK A01 T02410196  RH  076%=      5-min Rain = 0
KPA1 110636Z 14008KT 24/20 A3008 RMK A01 T02410196  RH  076%=      5-min Rain = 0
KPA1 110637Z 14009KT 24/20 A3008 RMK A01 T02410196  RH  076%=      5-min Rain = 0
KPA1 110638Z 14009KT 24/20 A3008 RMK A01 T02410196  RH  076%=      5-min Rain = 0
KPA1 110639Z 15009KT 24/20 A3008 RMK A01 T02410196  RH  076%=      5-min Rain = 0
KPA1 110640Z 15009KT 24/20 A3008 RMK A01 T02410196  RH  076%=      5-min Rain = 0
KPA1 110641Z 15008KT 24/20 A3008 RMK A01 T02410196  RH  076%=      5-min Rain = 0
KPA1 110642Z 15008KT 24/20 A3008 RMK A01 T02400196  RH  076%=      5-min Rain = 0
KPA1 110643Z 15009KT 24/20 A3008 RMK A01 T02390196  RH  077%=      5-min Rain = 0
KPA1 110644Z 15008KT 24/20 A3008 RMK A01 T02390196  RH  077%=      5-min Rain = 0
KPA1 110645Z 15008KT 24/20 A3008 RMK A01 T02380196  RH  077%=      5-min Rain = 0
KPA1 110646Z 15009KT 24/20 A3008 RMK A01 T02380196  RH  077%=      5-min Rain = 0
KPA1 110647Z 15009KT 24/20 A3008 RMK A01 T02370195  RH  078%=      5-min Rain = 0
KPA1 110648Z 16009KT 24/20 A3008 RMK A01 T02370196  RH  078%=      5-min Rain = 0
KPA1 110649Z 16009KT 24/20 A3008 RMK A01 T02360195  RH  078%=      5-min Rain = 0
KPA1 110650Z 16009KT 24/20 A3008 RMK A01 T02360196  RH  078%=      5-min Rain = 0
KPA1 110651Z 16009KT 24/20 A3007 RMK A01 T02360195  RH  078%=      5-min Rain = 0
KPA1 110652Z 16009KT 24/20 A3007 RMK A01 T02360195  RH  078%=      5-min Rain = 0
KPA1 110653Z 16008KT 24/20 A3007 RMK A01 T02360195  RH  078%=      5-min Rain = 0
KPA1 110654Z 16009KT 24/20 A3008 RMK A01 T02360195  RH  078%=      5-min Rain = 0
KPA1 110655Z 16009KT 24/20 A3008 RMK A01 T02360195  RH  078%=      5-min Rain = 0
KPA1 110656Z 15009KT 24/19 A3008 RMK A01 T02350194  RH  078%=      5-min Rain = 0
KPA1 110657Z 16008KT 24/19 A3008 RMK A01 T02350194  RH  078%=      5-min Rain = 0
KPA1 110658Z 15008KT 24/19 A3008 RMK A01 T02350194  RH  078%=      5-min Rain = 0
KPA1 110659Z 15009KT 24/19 A3008 RMK A01 T02350194  RH  078%=      5-min Rain = 0
KPA1 110700Z 15008KT 24/19 A3008 RMK A01 T02350194  RH  078%=      5-min Rain = 0
KPA1 110701Z 15009KT 24/19 A3008 RMK A01 T02350193  RH  078%=      5-min Rain = 0
KPA1 110702Z 15009KT 24/19 A3008 RMK A01 T02350194  RH  078%=      5-min Rain = 0
KPA1 110703Z 15008KT 24/19 A3008 RMK A01 T02350194  RH  078%=      5-min Rain = 0
KPA1 110704Z 15009KT 23/19 A3008 RMK A01 T02340194  RH  078%=      5-min Rain = 0
KPA1 110705Z 15009KT 23/19 A3008 RMK A01 T02340194  RH  078%=      5-min Rain = 0
KPA1 110706Z 15009KT 23/19 A3008 RMK A01 T02340194  RH  078%=      5-min Rain = 0
KPA1 110707Z 15009KT 23/19 A3008 RMK A01 T02340193  RH  078%=      5-min Rain = 0
KPA1 110708Z 15008KT 23/19 A3008 RMK A01 T02340194  RH  078%=      5-min Rain = 0
KPA1 110709Z 15008KT 23/19 A3008 RMK A01 T02340194  RH  078%=      5-min Rain = 0
KPA1 110710Z 16009KT 23/19 A3008 RMK A01 T02340194  RH  078%=      5-min Rain = 0
KPA1 110711Z 15008KT 23/19 A3008 RMK A01 T02330194  RH  078%=      5-min Rain = 0
KPA1 110712Z 16009KT 23/19 A3008 RMK A01 T02330193  RH  078%=      5-min Rain = 0
KPA1 110713Z 15008KT 23/19 A3008 RMK A01 T02330193  RH  078%=      5-min Rain = 0
KPA1 110714Z 16008KT 23/19 A3008 RMK A01 T02330193  RH  078%=      5-min Rain = 0
KPA1 110715Z 15008KT 23/19 A3008 RMK A01 T02330193  RH  078%=      5-min Rain = 0
KPA1 110716Z 15008KT 23/19 A3008 RMK A01 T02330193  RH  078%=      5-min Rain = 0
KPA1 110717Z 16008KT 23/19 A3008 RMK A01 T02330193  RH  078%=      5-min Rain = 0
KPA1 110718Z 15009KT 23/19 A3008 RMK A01 T02330193  RH  078%=      5-min Rain = 0
KPA1 110719Z 15008KT 23/19 A3008 RMK A01 T02330194  RH  078%=      5-min Rain = 0
KPA1 110720Z 15009KT 23/19 A3008 RMK A01 T02330193  RH  078%=      5-min Rain = 0
KPA1 110721Z 15009KT 23/19 A3008 RMK A01 T02330193  RH  078%=      5-min Rain = 0
KPA1 110722Z 15008KT 23/19 A3008 RMK A01 T02330193  RH  078%=      5-min Rain = 0
KPA1 110723Z 15008KT 23/19 A3008 RMK A01 T02330193  RH  078%=      5-min Rain = 0
KPA1 110724Z 15008KT 23/19 A3008 RMK A01 T02330193  RH  078%=      5-min Rain = 0
KPA1 110725Z 15008KT 23/19 A3008 RMK A01 T02320193  RH  079%=      5-min Rain = 0
KPA1 110726Z 15008KT 23/19 A3008 RMK A01 T02320193  RH  079%=      5-min Rain = 0
KPA1 110727Z 15009KT 23/19 A3008 RMK A01 T02320193  RH  079%=      5-min Rain = 0
KPA1 110728Z 16009KT 23/19 A3008 RMK A01 T02320193  RH  079%=      5-min Rain = 0
KPA1 110729Z 16008KT 23/19 A3008 RMK A01 T02320193  RH  079%=      5-min Rain = 0
KPA1 110730Z 15009KT 23/19 A3008 RMK A01 T02320193  RH  079%=      5-min Rain = 0
KPA1 110731Z 16008KT 23/19 A3008 RMK A01 T02320193  RH  079%=      5-min Rain = 0
KPA1 110732Z 15008KT 23/19 A3008 RMK A01 T02310192  RH  079%=      5-min Rain = 0
KPA1 110733Z 15009KT 23/19 A3008 RMK A01 T02310193  RH  079%=      5-min Rain = 0
KPA1 110734Z 16009KT 23/19 A3008 RMK A01 T02300192  RH  079%=      5-min Rain = 0
KPA1 110735Z 15009KT 23/19 A3008 RMK A01 T02300193  RH  079%=      5-min Rain = 0
KPA1 110736Z 16009KT 23/19 A3008 RMK A01 T02300193  RH  079%=      5-min Rain = 0
KPA1 110737Z 16008KT 23/19 A3008 RMK A01 T02300192  RH  079%=      5-min Rain = 0
KPA1 110738Z 16008KT 23/19 A3008 RMK A01 T02300192  RH  079%=      5-min Rain = 0
KPA1 110739Z 16008KT 23/19 A3008 RMK A01 T02290192  RH  079%=      5-min Rain = 0
KPA1 110740Z 15009KT 23/19 A3008 RMK A01 T02290192  RH  080%=      5-min Rain = 0
KPA1 110741Z 16008KT 23/19 A3008 RMK A01 T02290192  RH  080%=      5-min Rain = 0
KPA1 110742Z 16008KT 23/19 A3008 RMK A01 T02290192  RH  080%=      5-min Rain = 0
KPA1 110743Z 16008KT 23/19 A3008 RMK A01 T02280192  RH  080%=      5-min Rain = 0
KPA1 110744Z 16008KT 23/19 A3008 RMK A01 T02280192  RH  080%=      5-min Rain = 0
KPA1 110745Z 16008KT 23/19 A3008 RMK A01 T02280192  RH  080%=      5-min Rain = 0
KPA1 110746Z 16008KT 23/19 A3008 RMK A01 T02280192  RH  080%=      5-min Rain = 0
KPA1 110747Z 16008KT 23/19 A3008 RMK A01 T02270192  RH  080%=      5-min Rain = 0
KPA1 110748Z 16008KT 23/19 A3008 RMK A01 T02270192  RH  080%=      5-min Rain = 0
KPA1 110749Z 16007KT 23/19 A3008 RMK A01 T02270191  RH  080%=      5-min Rain = 0
KPA1 110750Z 16008KT 23/19 A3008 RMK A01 T02280192  RH  080%=      5-min Rain = 0
KPA1 110751Z 15008KT 23/19 A3008 RMK A01 T02280192  RH  080%=      5-min Rain = 0
KPA1 110752Z 15008KT 23/19 A3008 RMK A01 T02270192  RH  080%=      5-min Rain = 0
KPA1 110753Z 15007KT 23/19 A3008 RMK A01 T02270192  RH  081%=      5-min Rain = 0
KPA1 110754Z 15007KT 23/19 A3008 RMK A01 T02270192  RH  081%=      5-min Rain = 0
KPA1 110755Z 15007KT 23/19 A3008 RMK A01 T02270192  RH  081%=      5-min Rain = 0
KPA1 110756Z 15007KT 23/19 A3008 RMK A01 T02260192  RH  081%=      5-min Rain = 0
KPA1 110757Z 15007KT 23/19 A3008 RMK A01 T02260192  RH  081%=      5-min Rain = 0
KPA1 110758Z 15007KT 23/19 A3008 RMK A01 T02260192  RH  081%=      5-min Rain = 0
KPA1 110759Z 15008KT 23/19 A3008 RMK A01 T02250192  RH  081%=      5-min Rain = 0
KPA1 110800Z 15008KT 23/19 A3008 RMK A01 T02250192  RH  082%=      5-min Rain = 0
KPA1 110801Z 15007KT 23/19 A3008 RMK A01 T02250192  RH  082%=      5-min Rain = 0
KPA1 110802Z 16007KT 23/19 A3008 RMK A01 T02250192  RH  082%=      5-min Rain = 0
KPA1 110803Z 16008KT 23/19 A3008 RMK A01 T02250192  RH  082%=      5-min Rain = 0
KPA1 110804Z 15008KT 23/19 A3007 RMK A01 T02250192  RH  082%=      5-min Rain = 0
KPA1 110805Z 16008KT 23/19 A3007 RMK A01 T02250192  RH  082%=      5-min Rain = 0
KPA1 110806Z 16008KT 23/19 A3008 RMK A01 T02250192  RH  082%=      5-min Rain = 0
KPA1 110807Z 16008KT 23/19 A3008 RMK A01 T02250192  RH  082%=      5-min Rain = 0
KPA1 110808Z 16008KT 23/19 A3008 RMK A01 T02260192  RH  081%=      5-min Rain = 0
KPA1 110809Z 16008KT 23/19 A3008 RMK A01 T02260193  RH  081%=      5-min Rain = 0
KPA1 110810Z 16008KT 23/19 A3008 RMK A01 T02260192  RH  081%=      5-min Rain = 0
KPA1 110811Z 16008KT 23/19 A3008 RMK A01 T02260193  RH  081%=      5-min Rain = 0
KPA1 110812Z 16007KT 23/19 A3008 RMK A01 T02260192  RH  081%=      5-min Rain = 0
KPA1 110813Z 16008KT 23/19 A3008 RMK A01 T02270193  RH  081%=      5-min Rain = 0
KPA1 110814Z 16007KT 23/19 A3008 RMK A01 T02270193  RH  081%=      5-min Rain = 0
KPA1 110815Z 16007KT 23/19 A3008 RMK A01 T02260192  RH  081%=      5-min Rain = 0
KPA1 110816Z 16007KT 23/19 A3008 RMK A01 T02270192  RH  081%=      5-min Rain = 0
KPA1 110817Z 16007KT 23/19 A3008 RMK A01 T02270192  RH  081%=      5-min Rain = 0
KPA1 110818Z 16006KT 23/19 A3008 RMK A01 T02270192  RH  081%=      5-min Rain = 0
KPA1 110819Z 16007KT 23/19 A3008 RMK A01 T02260192  RH  081%=      5-min Rain = 0
KPA1 110820Z 16007KT 23/19 A3008 RMK A01 T02260192  RH  081%=      5-min Rain = 0
KPA1 110821Z 16007KT 23/19 A3008 RMK A01 T02250192  RH  082%=      5-min Rain = 0
KPA1 110822Z 16007KT 23/19 A3008 RMK A01 T02250192  RH  082%=      5-min Rain = 0
KPA1 110823Z 16006KT 22/19 A3007 RMK A01 T02240192  RH  082%=      5-min Rain = 0
KPA1 110824Z 16006KT 22/19 A3007 RMK A01 T02240192  RH  082%=      5-min Rain = 0
KPA1 110825Z 16007KT 22/19 A3007 RMK A01 T02230192  RH  083%=      5-min Rain = 0
KPA1 110826Z 16007KT 22/19 A3007 RMK A01 T02230192  RH  083%=      5-min Rain = 0
KPA1 110827Z 16007KT 22/19 A3007 RMK A01 T02220193  RH  083%=      5-min Rain = 0
KPA1 110828Z 16007KT 22/19 A3007 RMK A01 T02230193  RH  083%=      5-min Rain = 0
KPA1 110829Z 16007KT 22/19 A3007 RMK A01 T02230193  RH  083%=      5-min Rain = 0
KPA1 110830Z 16007KT 22/19 A3008 RMK A01 T02230193  RH  083%=      5-min Rain = 0
KPA1 110831Z 16007KT 22/19 A3008 RMK A01 T02230193  RH  083%=      5-min Rain = 0
KPA1 110832Z 17007KT 22/19 A3008 RMK A01 T02220193  RH  083%=      5-min Rain = 0
KPA1 110833Z 17007KT 22/19 A3008 RMK A01 T02220193  RH  083%=      5-min Rain = 0
KPA1 110834Z 17007KT 22/19 A3008 RMK A01 T02220192  RH  083%=      5-min Rain = 0
KPA1 110835Z 17007KT 22/19 A3007 RMK A01 T02220192  RH  083%=      5-min Rain = 0
KPA1 110836Z 17007KT 22/19 A3007 RMK A01 T02210192  RH  083%=      5-min Rain = 0
KPA1 110837Z 16007KT 22/19 A3007 RMK A01 T02220192  RH  083%=      5-min Rain = 0
KPA1 110838Z 16007KT 22/19 A3007 RMK A01 T02220192  RH  083%=      5-min Rain = 0
KPA1 110839Z 16007KT 22/19 A3007 RMK A01 T02220192  RH  083%=      5-min Rain = 0
KPA1 110840Z 16007KT 22/19 A3007 RMK A01 T02220192  RH  083%=      5-min Rain = 0
KPA1 110841Z 16007KT 22/19 A3007 RMK A01 T02220192  RH  083%=      5-min Rain = 0
KPA1 110842Z 16007KT 22/19 A3007 RMK A01 T02210192  RH  083%=      5-min Rain = 0
KPA1 110843Z 16006KT 22/19 A3007 RMK A01 T02210192  RH  084%=      5-min Rain = 0
KPA1 110844Z 16007KT 22/19 A3007 RMK A01 T02210192  RH  084%=      5-min Rain = 0
KPA1 110845Z 16007KT 22/19 A3007 RMK A01 T02200191  RH  084%=      5-min Rain = 0
KPA1 110846Z 16006KT 22/19 A3007 RMK A01 T02190191  RH  084%=      5-min Rain = 0
KPA1 110847Z 16006KT 22/19 A3007 RMK A01 T02190191  RH  084%=      5-min Rain = 0
KPA1 110848Z 16006KT 22/19 A3007 RMK A01 T02190191  RH  084%=      5-min Rain = 0
KPA1 110849Z 16006KT 22/19 A3007 RMK A01 T02180192  RH  085%=      5-min Rain = 0
KPA1 110850Z 16007KT 22/19 A3007 RMK A01 T02180191  RH  085%=      5-min Rain = 0
KPA1 110851Z 16006KT 22/19 A3007 RMK A01 T02180192  RH  085%=      5-min Rain = 0
KPA1 110852Z 16006KT 22/19 A3007 RMK A01 T02180192  RH  085%=      5-min Rain = 0
KPA1 110853Z 16006KT 22/19 A3007 RMK A01 T02170192  RH  085%=      5-min Rain = 0
KPA1 110854Z 16006KT 22/19 A3007 RMK A01 T02170192  RH  086%=      5-min Rain = 0
KPA1 110855Z 16006KT 22/19 A3007 RMK A01 T02170192  RH  085%=      5-min Rain = 0
KPA1 110856Z 16006KT 22/19 A3007 RMK A01 T02170192  RH  086%=      5-min Rain = 0
KPA1 110857Z 16006KT 22/19 A3007 RMK A01 T02170192  RH  086%=      5-min Rain = 0
KPA1 110858Z 16006KT 22/19 A3007 RMK A01 T02170191  RH  086%=      5-min Rain = 0
KPA1 110859Z 17006KT 22/19 A3007 RMK A01 T02160191  RH  086%=      5-min Rain = 0
KPA1 110900Z 17006KT 22/19 A3007 RMK A01 T02160192  RH  086%=      5-min Rain = 0
KPA1 110901Z 16006KT 22/19 A3007 RMK A01 T02160192  RH  086%=      5-min Rain = 0
KPA1 110902Z 16006KT 22/19 A3007 RMK A01 T02160191  RH  086%=      5-min Rain = 0
KPA1 110903Z 16006KT 22/19 A3007 RMK A01 T02160191  RH  086%=      5-min Rain = 0
KPA1 110904Z 16006KT 22/19 A3007 RMK A01 T02160192  RH  086%=      5-min Rain = 0
KPA1 110905Z 17006KT 22/19 A3007 RMK A01 T02160191  RH  086%=      5-min Rain = 0
KPA1 110906Z 17005KT 22/19 A3007 RMK A01 T02160191  RH  086%=      5-min Rain = 0
KPA1 110907Z 17005KT 22/19 A3007 RMK A01 T02160191  RH  086%=      5-min Rain = 0
KPA1 110908Z 17005KT 22/19 A3007 RMK A01 T02150191  RH  086%=      5-min Rain = 0
KPA1 110909Z 17005KT 22/19 A3007 RMK A01 T02150191  RH  086%=      5-min Rain = 0
KPA1 110910Z 17005KT 22/19 A3007 RMK A01 T02150191  RH  086%=      5-min Rain = 0
KPA1 110911Z 17005KT 22/19 A3007 RMK A01 T02150191  RH  086%=      5-min Rain = 0
KPA1 110912Z 17005KT 21/19 A3007 RMK A01 T02140190  RH  086%=      5-min Rain = 0
KPA1 110913Z 17005KT 21/19 A3007 RMK A01 T02130190  RH  087%=      5-min Rain = 0
KPA1 110914Z 17005KT 21/19 A3007 RMK A01 T02130190  RH  087%=      5-min Rain = 0
KPA1 110915Z 17005KT 21/19 A3007 RMK A01 T02120190  RH  087%=      5-min Rain = 0
KPA1 110916Z 17005KT 21/19 A3007 RMK A01 T02120190  RH  087%=      5-min Rain = 0
KPA1 110917Z 17005KT 21/19 A3007 RMK A01 T02110189  RH  087%=      5-min Rain = 0
KPA1 110918Z 17005KT 21/19 A3007 RMK A01 T02110189  RH  088%=      5-min Rain = 0
KPA1 110919Z 17005KT 21/19 A3007 RMK A01 T02100189  RH  088%=      5-min Rain = 0
KPA1 110920Z 17004KT 21/19 A3007 RMK A01 T02100189  RH  088%=      5-min Rain = 0
KPA1 110921Z 16004KT 21/19 A3007 RMK A01 T02090189  RH  088%=      5-min Rain = 0
KPA1 110922Z 16004KT 21/19 A3007 RMK A01 T02090189  RH  088%=      5-min Rain = 0
KPA1 110923Z 16004KT 21/19 A3007 RMK A01 T02090189  RH  089%=      5-min Rain = 0
KPA1 110924Z 16004KT 21/19 A3007 RMK A01 T02090190  RH  089%=      5-min Rain = 0
KPA1 110925Z 16004KT 21/19 A3007 RMK A01 T02080189  RH  089%=      5-min Rain = 0
KPA1 110926Z 16004KT 21/19 A3007 RMK A01 T02080190  RH  089%=      5-min Rain = 0
KPA1 110927Z 16004KT 21/19 A3007 RMK A01 T02080190  RH  089%=      5-min Rain = 0
KPA1 110928Z 15004KT 21/19 A3007 RMK A01 T02080190  RH  089%=      5-min Rain = 0
KPA1 110929Z 15005KT 21/19 A3007 RMK A01 T02080190  RH  089%=      5-min Rain = 0
KPA1 110930Z 15005KT 21/19 A3007 RMK A01 T02080190  RH  090%=      5-min Rain = 0
KPA1 110931Z 15005KT 21/19 A3007 RMK A01 T02070190  RH  090%=      5-min Rain = 0
KPA1 110932Z 15006KT 21/19 A3007 RMK A01 T02070190  RH  090%=      5-min Rain = 0
KPA1 110933Z 15006KT 21/19 A3007 RMK A01 T02060190  RH  091%=      5-min Rain = 0
KPA1 110934Z 15006KT 21/19 A3007 RMK A01 T02060191  RH  091%=      5-min Rain = 0
KPA1 110935Z 15006KT 21/19 A3007 RMK A01 T02050191  RH  092%=      5-min Rain = 0
KPA1 110936Z 15006KT 21/19 A3007 RMK A01 T02060191  RH  091%=      5-min Rain = 0
KPA1 110937Z 16006KT 21/19 A3007 RMK A01 T02060192  RH  091%=      5-min Rain = 0
KPA1 110938Z 16005KT 21/19 A3007 RMK A01 T02060192  RH  091%=      5-min Rain = 0
KPA1 110939Z 16005KT 21/19 A3007 RMK A01 T02060191  RH  091%=      5-min Rain = 0
KPA1 110940Z 16006KT 21/19 A3007 RMK A01 T02060191  RH  091%=      5-min Rain = 0
KPA1 110941Z 17006KT 21/19 A3007 RMK A01 T02060191  RH  091%=      5-min Rain = 0
KPA1 110942Z 16006KT 21/19 A3007 RMK A01 T02060191  RH  091%=      5-min Rain = 0
KPA1 110943Z 16006KT 21/19 A3007 RMK A01 T02050191  RH  091%=      5-min Rain = 0
KPA1 110944Z 16006KT 21/19 A3007 RMK A01 T02060191  RH  091%=      5-min Rain = 0
KPA1 110945Z 16005KT 21/19 A3007 RMK A01 T02060191  RH  091%=      5-min Rain = 0
KPA1 110946Z 16006KT 21/19 A3007 RMK A01 T02050190  RH  091%=      5-min Rain = 0
KPA1 110947Z 16005KT 21/19 A3007 RMK A01 T02050190  RH  091%=      5-min Rain = 0
KPA1 110948Z 17005KT 21/19 A3007 RMK A01 T02050190  RH  091%=      5-min Rain = 0
KPA1 110949Z 17005KT 21/19 A3007 RMK A01 T02050190  RH  091%=      5-min Rain = 0
KPA1 110950Z 16005KT 21/19 A3007 RMK A01 T02050190  RH  091%=      5-min Rain = 0
KPA1 110951Z 17005KT 21/19 A3007 RMK A01 T02050189  RH  091%=      5-min Rain = 0
KPA1 110952Z 16005KT 21/19 A3007 RMK A01 T02050189  RH  091%=      5-min Rain = 0
KPA1 110953Z 16005KT 21/19 A3007 RMK A01 T02050189  RH  091%=      5-min Rain = 0
KPA1 110954Z 16005KT 21/19 A3007 RMK A01 T02050189  RH  091%=      5-min Rain = 0
KPA1 110955Z 16005KT 20/19 A3007 RMK A01 T02040188  RH  091%=      5-min Rain = 0
KPA1 110956Z 16005KT 20/19 A3007 RMK A01 T02040189  RH  091%=      5-min Rain = 0
KPA1 110957Z 16005KT 20/19 A3007 RMK A01 T02030188  RH  091%=      5-min Rain = 0
KPA1 110958Z 16005KT 20/19 A3007 RMK A01 T02030188  RH  091%=      5-min Rain = 0
KPA1 110959Z 16005KT 20/19 A3007 RMK A01 T02030188  RH  092%=      5-min Rain = 0
KPA1 111000Z 16005KT 20/19 A3007 RMK A01 T02020188  RH  092%=      5-min Rain = 0
KPA1 111001Z 16006KT 20/19 A3007 RMK A01 T02010188  RH  092%=      5-min Rain = 0
KPA1 111002Z 16005KT 20/19 A3007 RMK A01 T02010189  RH  092%=      5-min Rain = 0
KPA1 111003Z 16005KT 20/19 A3007 RMK A01 T02010189  RH  093%=      5-min Rain = 0
KPA1 111004Z 16006KT 20/19 A3007 RMK A01 T02010189  RH  093%=      5-min Rain = 0
KPA1 111005Z 15006KT 20/19 A3007 RMK A01 T02010189  RH  093%=      5-min Rain = 0
KPA1 111006Z 15005KT 20/19 A3007 RMK A01 T02000189  RH  093%=      5-min Rain = 0
KPA1 111007Z 16005KT 20/19 A3007 RMK A01 T02000190  RH  093%=      5-min Rain = 0
KPA1 111008Z 16005KT 20/19 A3007 RMK A01 T02000190  RH  094%=      5-min Rain = 0
KPA1 111009Z 16005KT 20/19 A3007 RMK A01 T02010190  RH  093%=      5-min Rain = 0
KPA1 111010Z 16005KT 20/19 A3007 RMK A01 T02000189  RH  093%=      5-min Rain = 0
KPA1 111011Z 16005KT 20/19 A3007 RMK A01 T02000189  RH  093%=      5-min Rain = 0
KPA1 111012Z 17004KT 20/19 A3007 RMK A01 T02010190  RH  093%=      5-min Rain = 0
KPA1 111013Z 17004KT 20/19 A3007 RMK A01 T02000189  RH  093%=      5-min Rain = 0
KPA1 111014Z 17003KT 20/19 A3007 RMK A01 T02000189  RH  093%=      5-min Rain = 0
KPA1 111015Z 17003KT 20/19 A3007 RMK A01 T02000189  RH  093%=      5-min Rain = 0
KPA1 111016Z 17003KT 20/19 A3007 RMK A01 T02000188  RH  093%=      5-min Rain = 0
KPA1 111017Z 16003KT 20/19 A3007 RMK A01 T02000188  RH  093%=      5-min Rain = 0
KPA1 111018Z 16003KT 20/19 A3007 RMK A01 T02000188  RH  093%=      5-min Rain = 0
KPA1 111019Z 16003KT 20/19 A3007 RMK A01 T02000189  RH  093%=      5-min Rain = 0
KPA1 111020Z 16003KT 20/19 A3008 RMK A01 T02000189  RH  093%=      5-min Rain = 0
KPA1 111021Z 16003KT 20/19 A3008 RMK A01 T02000189  RH  093%=      5-min Rain = 0
KPA1 111022Z 15003KT 20/19 A3008 RMK A01 T02010190  RH  093%=      5-min Rain = 0
KPA1 111023Z 16003KT 20/19 A3008 RMK A01 T02020190  RH  093%=      5-min Rain = 0
KPA1 111024Z 15004KT 20/19 A3008 RMK A01 T02020190  RH  092%=      5-min Rain = 0
KPA1 111025Z 15004KT 20/19 A3008 RMK A01 T02030190  RH  092%=      5-min Rain = 0
KPA1 111026Z 15004KT 20/19 A3008 RMK A01 T02030189  RH  092%=      5-min Rain = 0
KPA1 111027Z 15004KT 20/19 A3008 RMK A01 T02030190  RH  092%=      5-min Rain = 0
KPA1 111028Z 15005KT 20/19 A3008 RMK A01 T02030190  RH  092%=      5-min Rain = 0
KPA1 111029Z 15005KT 20/19 A3008 RMK A01 T02040191  RH  092%=      5-min Rain = 0
KPA1 111030Z 15005KT 20/19 A3008 RMK A01 T02040191  RH  092%=      5-min Rain = 0
KPA1 111031Z 15005KT 20/19 A3008 RMK A01 T02040191  RH  092%=      5-min Rain = 0
KPA1 111032Z 15006KT 20/19 A3008 RMK A01 T02040192  RH  092%=      5-min Rain = 0
KPA1 111033Z 15006KT 20/19 A3008 RMK A01 T02040192  RH  092%=      5-min Rain = 0
KPA1 111034Z 15006KT 21/19 A3008 RMK A01 T02050192  RH  092%=      5-min Rain = 0
KPA1 111035Z 15006KT 21/19 A3008 RMK A01 T02050192  RH  092%=      5-min Rain = 0
KPA1 111036Z 15007KT 21/19 A3008 RMK A01 T02050192  RH  092%=      5-min Rain = 0
KPA1 111037Z 15007KT 21/19 A3008 RMK A01 T02050192  RH  092%=      5-min Rain = 0
KPA1 111038Z 14007KT 21/19 A3008 RMK A01 T02060192  RH  092%=      5-min Rain = 0
KPA1 111039Z 14007KT 21/19 A3008 RMK A01 T02060192  RH  092%=      5-min Rain = 0
KPA1 111040Z 14007KT 21/19 A3008 RMK A01 T02060192  RH  092%=      5-min Rain = 0
KPA1 111041Z 15007KT 21/19 A3008 RMK A01 T02060192  RH  091%=      5-min Rain = 0
KPA1 111042Z 14007KT 21/19 A3008 RMK A01 T02070192  RH  091%=      5-min Rain = 0
KPA1 111043Z 14007KT 21/19 A3008 RMK A01 T02070192  RH  091%=      5-min Rain = 0
KPA1 111044Z 15007KT 21/19 A3008 RMK A01 T02070192  RH  091%=      5-min Rain = 0
KPA1 111045Z 15007KT 21/19 A3008 RMK A01 T02070192  RH  091%=      5-min Rain = 0
KPA1 111046Z 15007KT 21/19 A3008 RMK A01 T02070192  RH  091%=      5-min Rain = 0
KPA1 111047Z 15007KT 21/19 A3008 RMK A01 T02060192  RH  092%=      5-min Rain = 0
KPA1 111048Z 15007KT 21/19 A3008 RMK A01 T02060192  RH  092%=      5-min Rain = 0
KPA1 111049Z 15007KT 21/19 A3008 RMK A01 T02050192  RH  092%=      5-min Rain = 0
KPA1 111050Z 15007KT 21/19 A3008 RMK A01 T02050192  RH  092%=      5-min Rain = 0
KPA1 111051Z 15008KT 20/19 A3008 RMK A01 T02040192  RH  093%=      5-min Rain = 0
KPA1 111052Z 15008KT 20/19 A3008 RMK A01 T02040192  RH  093%=      5-min Rain = 0
KPA1 111053Z 15008KT 20/19 A3008 RMK A01 T02030192  RH  093%=      5-min Rain = 0
KPA1 111054Z 15008KT 20/19 A3008 RMK A01 T02030192  RH  093%=      5-min Rain = 0
KPA1 111055Z 15008KT 20/19 A3008 RMK A01 T02030193  RH  094%=      5-min Rain = 0
KPA1 111056Z 15008KT 20/19 A3008 RMK A01 T02030193  RH  094%=      5-min Rain = 0
KPA1 111057Z 15008KT 20/19 A3008 RMK A01 T02030193  RH  094%=      5-min Rain = 0
KPA1 111058Z 15009KT 20/19 A3008 RMK A01 T02040193  RH  094%=      5-min Rain = 0
KPA1 111059Z 15009KT 20/19 A3009 RMK A01 T02040193  RH  093%=      5-min Rain = 0
KPA1 111100Z 15009KT 20/19 A3009 RMK A01 T02040193  RH  093%=      5-min Rain = 0
KPA1 111101Z 15009KT 21/19 A3008 RMK A01 T02050193  RH  093%=      5-min Rain = 0
KPA1 111102Z 15009KT 21/19 A3008 RMK A01 T02060194  RH  093%=      5-min Rain = 0
KPA1 111103Z 15009KT 21/19 A3008 RMK A01 T02060193  RH  092%=      5-min Rain = 0
KPA1 111104Z 14010KT 21/19 A3008 RMK A01 T02060194  RH  092%=      5-min Rain = 0
KPA1 111105Z 15010KT 21/19 A3008 RMK A01 T02070194  RH  092%=      5-min Rain = 0
KPA1 111106Z 15010KT 21/19 A3008 RMK A01 T02070194  RH  092%=      5-min Rain = 0
KPA1 111107Z 15010KT 21/19 A3008 RMK A01 T02080194  RH  092%=      5-min Rain = 0
KPA1 111108Z 15010KT 21/19 A3008 RMK A01 T02080194  RH  092%=      5-min Rain = 0
KPA1 111109Z 15010KT 21/20 A3008 RMK A01 T02090195  RH  091%=      5-min Rain = 0
KPA1 111110Z 15010KT 21/20 A3008 RMK A01 T02090195  RH  091%=      5-min Rain = 0
KPA1 111111Z 15010KT 21/20 A3008 RMK A01 T02100195  RH  091%=      5-min Rain = 0
KPA1 111112Z 15009KT 21/20 A3008 RMK A01 T02100195  RH  091%=      5-min Rain = 0
KPA1 111113Z 15009KT 21/19 A3008 RMK A01 T02100194  RH  091%=      5-min Rain = 0
KPA1 111114Z 15008KT 21/19 A3009 RMK A01 T02100194  RH  091%=      5-min Rain = 0
KPA1 111115Z 15008KT 21/19 A3009 RMK A01 T02100194  RH  091%=      5-min Rain = 0
KPA1 111116Z 15009KT 21/19 A3009 RMK A01 T02100194  RH  091%=      5-min Rain = 0
KPA1 111117Z 15009KT 21/19 A3009 RMK A01 T02090194  RH  091%=      5-min Rain = 0
KPA1 111118Z 15008KT 21/19 A3009 RMK A01 T02090194  RH  091%=      5-min Rain = 0
KPA1 111119Z 15008KT 21/19 A3009 RMK A01 T02090193  RH  091%=      5-min Rain = 0
KPA1 111120Z 15009KT 21/19 A3009 RMK A01 T02090194  RH  091%=      5-min Rain = 0
KPA1 111121Z 15008KT 21/19 A3009 RMK A01 T02090194  RH  091%=      5-min Rain = 0
KPA1 111122Z 15008KT 21/19 A3009 RMK A01 T02080193  RH  091%=      5-min Rain = 0
KPA1 111123Z 15008KT 21/19 A3009 RMK A01 T02080193  RH  091%=      5-min Rain = 0
KPA1 111124Z 15008KT 21/19 A3009 RMK A01 T02080193  RH  091%=      5-min Rain = 0
KPA1 111125Z 15008KT 21/19 A3009 RMK A01 T02070193  RH  092%=      5-min Rain = 0
KPA1 111126Z 15009KT 21/19 A3009 RMK A01 T02080193  RH  091%=      5-min Rain = 0
KPA1 111127Z 15009KT 21/19 A3009 RMK A01 T02080193  RH  091%=      5-min Rain = 0
KPA1 111128Z 15009KT 21/19 A3009 RMK A01 T02080193  RH  091%=      5-min Rain = 0
KPA1 111129Z 15009KT 21/19 A3009 RMK A01 T02090193  RH  091%=      5-min Rain = 0
KPA1 111130Z 15009KT 21/19 A3009 RMK A01 T02090193  RH  091%=      5-min Rain = 0
KPA1 111131Z 16010KT 21/19 A3009 RMK A01 T02090193  RH  091%=      5-min Rain = 0
KPA1 111132Z 15010KT 21/19 A3009 RMK A01 T02090193  RH  090%=      5-min Rain = 0
KPA1 111133Z 15010KT 21/19 A3009 RMK A01 T02090192  RH  090%=      5-min Rain = 0
KPA1 111134Z 16009KT 21/19 A3009 RMK A01 T02090192  RH  090%=      5-min Rain = 0
KPA1 111135Z 16010KT 21/19 A3009 RMK A01 T02080192  RH  090%=      5-min Rain = 0
KPA1 111136Z 16009KT 21/19 A3009 RMK A01 T02080192  RH  090%=      5-min Rain = 0
KPA1 111137Z 16009KT 21/19 A3009 RMK A01 T02080192  RH  090%=      5-min Rain = 0
KPA1 111138Z 16009KT 21/19 A3009 RMK A01 T02090192  RH  090%=      5-min Rain = 0
KPA1 111139Z 16009KT 21/19 A3009 RMK A01 T02090192  RH  090%=      5-min Rain = 0
KPA1 111140Z 16008KT 21/19 A3009 RMK A01 T02090192  RH  090%=      5-min Rain = 0
KPA1 111141Z 16009KT 21/19 A3009 RMK A01 T02090192  RH  090%=      5-min Rain = 0
KPA1 111142Z 16009KT 21/19 A3009 RMK A01 T02090192  RH  090%=      5-min Rain = 0
KPA1 111143Z 16008KT 21/19 A3009 RMK A01 T02090192  RH  090%=      5-min Rain = 0
KPA1 111144Z 17008KT 21/19 A3009 RMK A01 T02100192  RH  089%=      5-min Rain = 0
KPA1 111145Z 16009KT 21/19 A3009 RMK A01 T02110193  RH  089%=      5-min Rain = 0
KPA1 111146Z 16008KT 21/19 A3009 RMK A01 T02110192  RH  089%=      5-min Rain = 0
KPA1 111147Z 16008KT 21/19 A3009 RMK A01 T02120192  RH  089%=      5-min Rain = 0
KPA1 111148Z 16009KT 21/19 A3009 RMK A01 T02110192  RH  089%=      5-min Rain = 0
KPA1 111149Z 16009KT 21/19 A3009 RMK A01 T02120192  RH  088%=      5-min Rain = 0
KPA1 111150Z 16008KT 21/19 A3009 RMK A01 T02120192  RH  088%=      5-min Rain = 0
KPA1 111151Z 16008KT 21/19 A3009 RMK A01 T02120192  RH  088%=      5-min Rain = 0
KPA1 111152Z 16008KT 21/19 A3009 RMK A01 T02130192  RH  088%=      5-min Rain = 0
KPA1 111153Z 16008KT 21/19 A3009 RMK A01 T02120192  RH  088%=      5-min Rain = 0
KPA1 111154Z 16007KT 21/19 A3009 RMK A01 T02120192  RH  088%=      5-min Rain = 0
KPA1 111155Z 17007KT 21/19 A3009 RMK A01 T02120192  RH  088%=      5-min Rain = 0
KPA1 111156Z 16008KT 21/19 A3009 RMK A01 T02120192  RH  088%=      5-min Rain = 0
KPA1 111157Z 16007KT 21/19 A3009 RMK A01 T02130192  RH  088%=      5-min Rain = 0
KPA1 111158Z 16007KT 21/19 A3009 RMK A01 T02130192  RH  088%=      5-min Rain = 0
KPA1 111159Z 16007KT 21/19 A3009 RMK A01 T02130192  RH  088%=      5-min Rain = 0
KPA1 111200Z 16007KT 21/19 A3009 RMK A01 T02130193  RH  088%=      5-min Rain = 0
KPA1 111201Z 17007KT 21/19 A3009 RMK A01 T02130193  RH  088%=      5-min Rain = 0
KPA1 111202Z 17006KT 21/19 A3009 RMK A01 T02130193  RH  089%=      5-min Rain = 0
KPA1 111203Z 17006KT 21/19 A3009 RMK A01 T02120193  RH  089%=      5-min Rain = 0
KPA1 111204Z 17005KT 21/19 A301 RMK A01 T02120193  RH  089%=      5-min Rain = 0
KPA1 111205Z 17005KT 21/19 A301 RMK A01 T02110193  RH  089%=      5-min Rain = 0
KPA1 111206Z 17004KT 21/19 A301 RMK A01 T02110193  RH  089%=      5-min Rain = 0
KPA1 111207Z 17004KT 21/19 A301 RMK A01 T02110193  RH  089%=      5-min Rain = 0
KPA1 111208Z 17004KT 21/19 A301 RMK A01 T02110193  RH  090%=      5-min Rain = 0
KPA1 111209Z 17004KT 21/19 A301 RMK A01 T02110193  RH  090%=      5-min Rain = 0
KPA1 111210Z 17004KT 21/19 A301 RMK A01 T02110193  RH  090%=      5-min Rain = 0
KPA1 111211Z 17004KT 21/19 A301 RMK A01 T02110193  RH  090%=      5-min Rain = 0
KPA1 111212Z 17004KT 21/19 A301 RMK A01 T02110193  RH  090%=      5-min Rain = 0
KPA1 111213Z 17005KT 21/19 A301 RMK A01 T02100193  RH  090%=      5-min Rain = 0
KPA1 111214Z 17005KT 21/19 A301 RMK A01 T02100193  RH  090%=      5-min Rain = 0
KPA1 111215Z 17005KT 21/19 A301 RMK A01 T02100193  RH  090%=      5-min Rain = 0
KPA1 111216Z 17005KT 21/19 A301 RMK A01 T02100194  RH  090%=      5-min Rain = 0
KPA1 111217Z 17005KT 21/19 A301 RMK A01 T02110194  RH  090%=      5-min Rain = 0
KPA1 111218Z 16005KT 21/19 A301 RMK A01 T02110194  RH  090%=      5-min Rain = 0
KPA1 111219Z 16004KT 21/20 A301 RMK A01 T02120195  RH  090%=      5-min Rain = 0
KPA1 111220Z 16004KT 21/20 A301 RMK A01 T02120195  RH  090%=      5-min Rain = 0
KPA1 111221Z 16004KT 21/20 A301 RMK A01 T02120195  RH  090%=      5-min Rain = 0
KPA1 111222Z 17004KT 21/20 A301 RMK A01 T02130195  RH  090%=      5-min Rain = 0
KPA1 111223Z 17003KT 21/20 A301 RMK A01 T02130195  RH  089%=      5-min Rain = 0
KPA1 111224Z 17003KT 21/20 A301 RMK A01 T02140195  RH  089%=      5-min Rain = 0
KPA1 111225Z 18003KT 21/20 A301 RMK A01 T02140195  RH  089%=      5-min Rain = 0
KPA1 111226Z 18003KT 22/20 A301 RMK A01 T02150196  RH  089%=      5-min Rain = 0
KPA1 111227Z 18003KT 22/20 A301 RMK A01 T02150195  RH  089%=      5-min Rain = 0
KPA1 111228Z 17003KT 22/20 A301 RMK A01 T02160196  RH  088%=      5-min Rain = 0
KPA1 111229Z 17002KT 22/20 A301 RMK A01 T02160196  RH  088%=      5-min Rain = 0
KPA1 111230Z 17003KT 22/20 A301 RMK A01 T02160196  RH  088%=      5-min Rain = 0
KPA1 111231Z 17003KT 22/20 A301 RMK A01 T02170197  RH  088%=      5-min Rain = 0
KPA1 111232Z 17003KT 22/20 A301 RMK A01 T02180197  RH  088%=      5-min Rain = 0
KPA1 111233Z 17003KT 22/20 A301 RMK A01 T02190197  RH  087%=      5-min Rain = 0
KPA1 111234Z 18002KT 22/20 A301 RMK A01 T02190196  RH  087%=      5-min Rain = 0
KPA1 111235Z 19002KT 22/20 A301 RMK A01 T02190196  RH  087%=      5-min Rain = 0
KPA1 111236Z 20002KT 22/20 A301 RMK A01 T02200196  RH  087%=      5-min Rain = 0
KPA1 111237Z 20002KT 22/20 A3011 RMK A01 T02200196  RH  086%=      5-min Rain = 0
KPA1 111238Z 19003KT 22/20 A3011 RMK A01 T02210195  RH  085%=      5-min Rain = 0
KPA1 111239Z 20002KT 22/20 A3011 RMK A01 T02220195  RH  085%=      5-min Rain = 0
KPA1 111240Z 20002KT 22/20 A3011 RMK A01 T02220196  RH  085%=      5-min Rain = 0
KPA1 111241Z 21002KT 22/20 A3011 RMK A01 T02220196  RH  085%=      5-min Rain = 0
KPA1 111242Z 23002KT 22/20 A3011 RMK A01 T02220196  RH  085%=      5-min Rain = 0
KPA1 111243Z 22002KT 22/20 A3011 RMK A01 T02220196  RH  085%=      5-min Rain = 0
KPA1 111244Z 22003KT 22/20 A3011 RMK A01 T02220195  RH  085%=      5-min Rain = 0
KPA1 111245Z 21003KT 22/20 A3011 RMK A01 T02230195  RH  084%=      5-min Rain = 0
KPA1 111246Z 21003KT 22/20 A3011 RMK A01 T02230196  RH  084%=      5-min Rain = 0
KPA1 111247Z 21003KT 22/20 A3011 RMK A01 T02240196  RH  084%=      5-min Rain = 0
KPA1 111248Z 20004KT 22/20 A3011 RMK A01 T02240196  RH  084%=      5-min Rain = 0
KPA1 111249Z 20004KT 23/20 A3011 RMK A01 T02250197  RH  084%=      5-min Rain = 0
KPA1 111250Z 19005KT 23/20 A3011 RMK A01 T02250197  RH  084%=      5-min Rain = 0
KPA1 111251Z 19004KT 23/20 A3011 RMK A01 T02260197  RH  084%=      5-min Rain = 0
KPA1 111252Z 19004KT 23/20 A3011 RMK A01 T02270198  RH  083%=      5-min Rain = 0
KPA1 111253Z 19004KT 23/20 A3011 RMK A01 T02290198  RH  083%=      5-min Rain = 0
KPA1 111254Z 19004KT 23/20 A3011 RMK A01 T02300199  RH  083%=      5-min Rain = 0
KPA1 111255Z 19003KT 23/20 A3011 RMK A01 T02310199  RH  082%=      5-min Rain = 0
KPA1 111256Z 20003KT 23/20 A3011 RMK A01 T02320198  RH  081%=      5-min Rain = 0
KPA1 111257Z 19003KT 23/20 A3011 RMK A01 T02340199  RH  081%=      5-min Rain = 0
KPA1 111258Z 20003KT 24/20 A3011 RMK A01 T02350198  RH  080%=      5-min Rain = 0
KPA1 111259Z 20003KT 24/20 A3011 RMK A01 T02350197  RH  079%=      5-min Rain = 0
KPA1 111300Z 19004KT 24/20 A3011 RMK A01 T02360196  RH  078%=      5-min Rain = 0
KPA1 111301Z 19004KT 24/20 A3011 RMK A01 T02370196  RH  078%=      5-min Rain = 0
KPA1 111302Z 19004KT 24/20 A3011 RMK A01 T02370196  RH  078%=      5-min Rain = 0
KPA1 111303Z 19004KT 24/20 A3011 RMK A01 T02380195  RH  077%=      5-min Rain = 0
KPA1 111304Z 18004KT 24/20 A3011 RMK A01 T02390196  RH  077%=      5-min Rain = 0
KPA1 111305Z 18004KT 24/20 A3011 RMK A01 T02400196  RH  077%=      5-min Rain = 0
KPA1 111306Z 18004KT 24/20 A3011 RMK A01 T02410195  RH  076%=      5-min Rain = 0
KPA1 111307Z 19003KT 24/20 A3011 RMK A01 T02420196  RH  076%=      5-min Rain = 0
KPA1 111308Z 19003KT 24/20 A3011 RMK A01 T02430197  RH  076%=      5-min Rain = 0
KPA1 111309Z 19003KT 24/20 A3011 RMK A01 T02440198  RH  075%=      5-min Rain = 0
KPA1 111310Z 19002KT 25/20 A3011 RMK A01 T02460197  RH  074%=      5-min Rain = 0
KPA1 111311Z 20003KT 25/20 A3011 RMK A01 T02460195  RH  073%=      5-min Rain = 0
KPA1 111312Z 19003KT 25/19 A3011 RMK A01 T02470194  RH  073%=      5-min Rain = 0
KPA1 111313Z 20002KT 25/19 A3011 RMK A01 T02470194  RH  072%=      5-min Rain = 0
KPA1 111314Z 21002KT 25/20 A3011 RMK A01 T02480196  RH  073%=      5-min Rain = 0
KPA1 111315Z 22002KT 25/20 A3011 RMK A01 T02490196  RH  072%=      5-min Rain = 0
KPA1 111316Z 21002KT 25/19 A3011 RMK A01 T02490194  RH  071%=      5-min Rain = 0
KPA1 111317Z 20002KT 25/20 A3011 RMK A01 T02500195  RH  072%=      5-min Rain = 0
KPA1 111318Z 20002KT 25/20 A3011 RMK A01 T02510195  RH  071%=      5-min Rain = 0
KPA1 111319Z 19002KT 25/20 A3011 RMK A01 T02520196  RH  071%=      5-min Rain = 0
KPA1 111320Z 20002KT 25/20 A3011 RMK A01 T02540196  RH  070%=      5-min Rain = 0
KPA1 111321Z 20003KT 26/20 A3011 RMK A01 T02550196  RH  070%=      5-min Rain = 0
KPA1 111322Z 20005KT 26/20 A3011 RMK A01 T02560196  RH  069%=      5-min Rain = 0
KPA1 111323Z 20005KT 26/20 A3011 RMK A01 T02580197  RH  069%=      5-min Rain = 0
KPA1 111324Z 21005KT 26/20 A3011 RMK A01 T02600195  RH  068%=      5-min Rain = 0
KPA1 111325Z 20005KT 26/19 A3011 RMK A01 T02610192  RH  066%=      5-min Rain = 0
KPA1 111326Z 20006KT 26/19 A3011 RMK A01 T02620192  RH  066%=      5-min Rain = 0
KPA1 111327Z 21005KT 26/19 A3011 RMK A01 T02630193  RH  065%=      5-min Rain = 0
KPA1 111328Z 21005KT 26/19 A3011 RMK A01 T02630191  RH  064%=      5-min Rain = 0
KPA1 111329Z 21005KT 26/19 A3011 RMK A01 T02630192  RH  065%=      5-min Rain = 0
KPA1 111330Z 22005KT 26/19 A3011 RMK A01 T02640190  RH  064%=      5-min Rain = 0
KPA1 111331Z 21005KT 27/19 A3011 RMK A01 T02650190  RH  064%=      5-min Rain = 0
KPA1 111332Z 21005KT 27/19 A3011 RMK A01 T02650191  RH  064%=      5-min Rain = 0
KPA1 111333Z 22006KT 27/19 A3011 RMK A01 T02660189  RH  063%=      5-min Rain = 0
KPA1 111334Z 21006KT 27/19 A3011 RMK A01 T02660191  RH  063%=      5-min Rain = 0
KPA1 111335Z 22006KT 27/19 A3011 RMK A01 T02680193  RH  063%=      5-min Rain = 0
KPA1 111336Z 21007KT 27/19 A3011 RMK A01 T02690189  RH  062%=      5-min Rain = 0
KPA1 111337Z 22007KT 27/19 A3011 RMK A01 T02700187  RH  060%=      5-min Rain = 0
KPA1 111338Z 21007KT 27/19 A3011 RMK A01 T02690187  RH  061%=      5-min Rain = 0
KPA1 111339Z 21008KT 27/19 A3011 RMK A01 T02700186  RH  060%=      5-min Rain = 0
KPA1 111340Z 21007KT 27/19 A3011 RMK A01 T02710186  RH  060%=      5-min Rain = 0
KPA1 111341Z 21006KT 27/19 A3011 RMK A01 T02720187  RH  060%=      5-min Rain = 0
KPA1 111342Z 21006KT 27/19 A3011 RMK A01 T02730187  RH  059%=      5-min Rain = 0
KPA1 111343Z 21005KT 27/19 A3011 RMK A01 T02740188  RH  060%=      5-min Rain = 0
KPA1 111344Z 21005KT 28/19 A3011 RMK A01 T02750189  RH  059%=      5-min Rain = 0
KPA1 111345Z 22005KT 28/19 A3011 RMK A01 T02760188  RH  059%=      5-min Rain = 0
KPA1 111346Z 22005KT 28/19 A3011 RMK A01 T02760187  RH  058%=      5-min Rain = 0
KPA1 111347Z 22005KT 28/19 A3011 RMK A01 T02770188  RH  058%=      5-min Rain = 0
KPA1 111348Z 22007KT 28/19 A3011 RMK A01 T02790186  RH  057%=      5-min Rain = 0
KPA1 111349Z 22006KT 28/19 A3011 RMK A01 T02790185  RH  057%=      5-min Rain = 0
KPA1 111350Z 22008KT 28/18 A3011 RMK A01 T02800183  RH  056%=      5-min Rain = 0
KPA1 111351Z 22008KT 28/18 A3011 RMK A01 T02810180  RH  054%=      5-min Rain = 0
KPA1 111352Z 22007KT 28/18 A3011 RMK A01 T02810180  RH  054%=      5-min Rain = 0
KPA1 111353Z 23007KT 28/18 A3011 RMK A01 T02800180  RH  055%=      5-min Rain = 0
KPA1 111354Z 22007KT 28/18 A3011 RMK A01 T02800181  RH  055%=      5-min Rain = 0
KPA1 111355Z 23006KT 28/18 A3011 RMK A01 T02810182  RH  055%=      5-min Rain = 0
KPA1 111356Z 22008KT 28/18 A3011 RMK A01 T02820182  RH  055%=      5-min Rain = 0
KPA1 111357Z 23010KT 28/18 A3011 RMK A01 T02830180  RH  054%=      5-min Rain = 0
KPA1 111358Z 22011KT 28/18 A3011 RMK A01 T02830178  RH  053%=      5-min Rain = 0
KPA1 111359Z 23010KT 28/18 A3011 RMK A01 T02830177  RH  053%=      5-min Rain = 0
KPA1 111400Z 23009KT 28/18 A3011 RMK A01 T02830178  RH  053%=      5-min Rain = 0
KPA1 111401Z 22008KT 28/18 A3011 RMK A01 T02830180  RH  054%=      5-min Rain = 0
KPA1 111402Z 22007KT 28/18 A3011 RMK A01 T02840182  RH  054%=      5-min Rain = 0
KPA1 111403Z 23009KT 29/18 A3011 RMK A01 T02850181  RH  053%=      5-min Rain = 0
KPA1 111404Z 23007KT 29/18 A3011 RMK A01 T02860183  RH  053%=      5-min Rain = 0
KPA1 111405Z 23007KT 29/18 A3011 RMK A01 T02870182  RH  053%=      5-min Rain = 0
KPA1 111406Z 23010KT 29/18 A3011 RMK A01 T02870181  RH  053%=      5-min Rain = 0
KPA1 111407Z 22007KT 29/18 A3011 RMK A01 T02870181  RH  053%=      5-min Rain = 0
KPA1 111408Z 22010KT 29/18 A3011 RMK A01 T02870182  RH  053%=      5-min Rain = 0
KPA1 111409Z 22011KT 29/18 A3011 RMK A01 T02870181  RH  052%=      5-min Rain = 0
KPA1 111410Z 22010KT 29/18 A3011 RMK A01 T02890181  RH  052%=      5-min Rain = 0
KPA1 111411Z 23012KT 29/18 A3011 RMK A01 T02890179  RH  051%=      5-min Rain = 0
KPA1 111412Z 23011KT 29/18 A3011 RMK A01 T02890178  RH  051%=      5-min Rain = 0
KPA1 111413Z 23011KT 29/18 A3011 RMK A01 T02880178  RH  051%=      5-min Rain = 0
KPA1 111414Z 23010KT 29/18 A3011 RMK A01 T02880180  RH  052%=      5-min Rain = 0
KPA1 111415Z 23010KT 29/18 A3011 RMK A01 T02890180  RH  052%=      5-min Rain = 0
KPA1 111416Z 22010KT 29/18 A3011 RMK A01 T02900181  RH  052%=      5-min Rain = 0
KPA1 111417Z 23013KT 29/18 A3011 RMK A01 T02910179  RH  051%=      5-min Rain = 0
KPA1 111418Z 23012KT 29/18 A3011 RMK A01 T02910177  RH  050%=      5-min Rain = 0
KPA1 111419Z 23011KT 29/18 A3011 RMK A01 T02920176  RH  050%=      5-min Rain = 0
KPA1 111420Z 23012KT 29/18 A3011 RMK A01 T02910179  RH  051%=      5-min Rain = 0
KPA1 111421Z 22012KT 29/18 A3011 RMK A01 T02910177  RH  050%=      5-min Rain = 0
KPA1 111422Z 23012KT 29/18 A3011 RMK A01 T02920179  RH  050%=      5-min Rain = 0
KPA1 111423Z 23014KT 29/18 A3011 RMK A01 T02920176  RH  050%=      5-min Rain = 0
KPA1 111424Z 23013KT 29/18 A3011 RMK A01 T02920177  RH  050%=      5-min Rain = 0
KPA1 111425Z 22014KT 29/18 A3011 RMK A01 T02920178  RH  050%=      5-min Rain = 0
KPA1 111426Z 23014KT 29/18 A3011 RMK A01 T02920177  RH  050%=      5-min Rain = 0
KPA1 111427Z 23013KT 29/18 A3011 RMK A01 T02930178  RH  050%=      5-min Rain = 0
KPA1 111428Z 23012KT 30/18 A3011 RMK A01 T02950178  RH  050%=      5-min Rain = 0
KPA1 111429Z 22013KT 30/18 A3011 RMK A01 T02960178  RH  049%=      5-min Rain = 0
KPA1 111430Z 23011KT 30/18 A3011 RMK A01 T02960178  RH  049%=      5-min Rain = 0
KPA1 111431Z 23010KT 30/18 A3011 RMK A01 T02960180  RH  050%=      5-min Rain = 0
KPA1 111432Z 23011KT 30/18 A3011 RMK A01 T02970178  RH  049%=      5-min Rain = 0
KPA1 111433Z 23011KT 30/18 A3011 RMK A01 T02970177  RH  048%=      5-min Rain = 0
KPA1 111434Z 22011KT 30/18 A3011 RMK A01 T02980178  RH  049%=      5-min Rain = 0
KPA1 111435Z 22010KT 30/18 A3011 RMK A01 T02990179  RH  048%=      5-min Rain = 0
KPA1 111436Z 22011KT 30/18 A3011 RMK A01 T02990179  RH  049%=      5-min Rain = 0
KPA1 111437Z 23012KT 30/18 A3011 RMK A01 T03010179  RH  048%=      5-min Rain = 0
KPA1 111438Z 23012KT 30/18 A3011 RMK A01 T03010178  RH  048%=      5-min Rain = 0
KPA1 111439Z 23011KT 30/18 A3011 RMK A01 T03020177  RH  047%=      5-min Rain = 0
KPA1 111440Z 22009KT 30/18 A3011 RMK A01 T03020178  RH  048%=      5-min Rain = 0
KPA1 111441Z 23010KT 30/18 A3011 RMK A01 T03030181  RH  048%=      5-min Rain = 0
KPA1 111442Z 23013KT 30/18 A3011 RMK A01 T03030178  RH  047%=      5-min Rain = 0
KPA1 111443Z 23012KT 30/18 A301 RMK A01 T03040177  RH  047%=      5-min Rain = 0
KPA1 111444Z 24010KT 30/18 A3011 RMK A01 T03040176  RH  046%=      5-min Rain = 0
KPA1 111445Z 23011KT 31/18 A3011 RMK A01 T03050180  RH  047%=      5-min Rain = 0
KPA1 111446Z 22010KT 31/18 A3011 RMK A01 T03070177  RH  046%=      5-min Rain = 0
KPA1 111447Z 22010KT 31/18 A3011 RMK A01 T03070182  RH  047%=      5-min Rain = 0
KPA1 111448Z 23010KT 31/18 A301 RMK A01 T03090179  RH  046%=      5-min Rain = 0
KPA1 111449Z 22011KT 31/18 A301 RMK A01 T03090176  RH  045%=      5-min Rain = 0
KPA1 111450Z 23009KT 31/18 A3011 RMK A01 T03080176  RH  045%=      5-min Rain = 0
KPA1 111451Z 24010KT 31/18 A3011 RMK A01 T03080179  RH  046%=      5-min Rain = 0
KPA1 111452Z 23012KT 31/18 A3011 RMK A01 T03100178  RH  045%=      5-min Rain = 0
KPA1 111453Z 23012KT 31/17 A301 RMK A01 T03120173  RH  044%=      5-min Rain = 0
KPA1 111454Z 25014KT 31/17 A301 RMK A01 T03120173  RH  043%=      5-min Rain = 0
KPA1 111455Z 25014KT 31/17 A301 RMK A01 T03120171  RH  043%=      5-min Rain = 0
KPA1 111456Z 24013KT 31/17 A301 RMK A01 T03120172  RH  043%=      5-min Rain = 0
KPA1 111457Z 24013KT 31/17 A301 RMK A01 T03130172  RH  043%=      5-min Rain = 0
KPA1 111458Z 25012KT 31/17 A301 RMK A01 T03120172  RH  043%=      5-min Rain = 0
KPA1 111459Z 25013KT 31/17 A301 RMK A01 T03140171  RH  042%=      5-min Rain = 0
KPA1 111500Z 24014KT 31/17 A301 RMK A01 T03140171  RH  042%=      5-min Rain = 0
KPA1 111501Z 24013KT 31/17 A301 RMK A01 T03140172  RH  042%=      5-min Rain = 0
KPA1 111502Z 24013KT 31/17 A301 RMK A01 T03140172  RH  043%=      5-min Rain = 0
KPA1 111503Z 24011KT 32/17 A301 RMK A01 T03150172  RH  043%=      5-min Rain = 0
KPA1 111504Z 24011KT 32/18 A301 RMK A01 T03150175  RH  043%=      5-min Rain = 0
KPA1 111505Z 25010KT 32/18 A301 RMK A01 T03170178  RH  044%=      5-min Rain = 0
KPA1 111506Z 25012KT 32/17 A301 RMK A01 T03190173  RH  042%=      5-min Rain = 0
KPA1 111507Z 24012KT 32/17 A301 RMK A01 T03180172  RH  042%=      5-min Rain = 0
KPA1 111508Z 24011KT 32/17 A301 RMK A01 T03170174  RH  042%=      5-min Rain = 0
KPA1 111509Z 24012KT 32/18 A301 RMK A01 T03190175  RH  042%=      5-min Rain = 0
KPA1 111510Z 23012KT 32/18 A301 RMK A01 T03210175  RH  042%=      5-min Rain = 0
KPA1 111511Z 23011KT 32/17 A301 RMK A01 T03210174  RH  041%=      5-min Rain = 0
KPA1 111512Z 24012KT 32/17 A301 RMK A01 T03200174  RH  042%=      5-min Rain = 0
KPA1 111513Z 25012KT 32/17 A301 RMK A01 T03210173  RH  041%=      5-min Rain = 0
KPA1 111514Z 24012KT 32/17 A301 RMK A01 T03220173  RH  041%=      5-min Rain = 0
KPA1 111515Z 24010KT 32/18 A301 RMK A01 T03230175  RH  041%=      5-min Rain = 0
KPA1 111516Z 25012KT 32/18 A301 RMK A01 T03240176  RH  041%=      5-min Rain = 0
KPA1 111517Z 24013KT 33/17 A301 RMK A01 T03260170  RH  040%=      5-min Rain = 0
KPA1 111518Z 24015KT 33/17 A301 RMK A01 T03250170  RH  040%=      5-min Rain = 0
KPA1 111519Z 25015KT 33/17 A301 RMK A01 T03250168  RH  039%=      5-min Rain = 0
KPA1 111520Z 23015KT 33/17 A301 RMK A01 T03250169  RH  039%=      5-min Rain = 0
KPA1 111521Z 24014KT 33/17 A301 RMK A01 T03250168  RH  039%=      5-min Rain = 0
KPA1 111522Z 24012KT 33/17 A301 RMK A01 T03260170  RH  039%=      5-min Rain = 0
KPA1 111523Z 24012KT 33/17 A301 RMK A01 T03290172  RH  039%=      5-min Rain = 0
KPA1 111524Z 24013KT 33/17 A3009 RMK A01 T03310171  RH  039%=      5-min Rain = 0
KPA1 111525Z 24013KT 33/17 A3009 RMK A01 T03310171  RH  039%=      5-min Rain = 0
KPA1 111526Z 23012KT 33/17 A3009 RMK A01 T03300171  RH  039%=      5-min Rain = 0
KPA1 111527Z 24012KT 33/17 A3009 RMK A01 T03290171  RH  039%=      5-min Rain = 0
KPA1 111528Z 24012KT 33/17 A3009 RMK A01 T03290171  RH  039%=      5-min Rain = 0
KPA1 111529Z 23013KT 33/17 A301 RMK A01 T03290170  RH  039%=      5-min Rain = 0
KPA1 111530Z 24011KT 33/17 A301 RMK A01 T03290173  RH  040%=      5-min Rain = 0
KPA1 111531Z 24011KT 33/18 A301 RMK A01 T03310175  RH  039%=      5-min Rain = 0
KPA1 111532Z 24012KT 33/17 A301 RMK A01 T03320172  RH  038%=      5-min Rain = 0
KPA1 111533Z 25013KT 33/17 A3009 RMK A01 T03320169  RH  038%=      5-min Rain = 0
KPA1 111534Z 23013KT 33/17 A301 RMK A01 T03310172  RH  039%=      5-min Rain = 0
KPA1 111535Z 23013KT 33/17 A3009 RMK A01 T03330173  RH  039%=      5-min Rain = 0
KPA1 111536Z 22013KT 33/17 A3009 RMK A01 T03330174  RH  039%=      5-min Rain = 0
KPA1 111537Z 23012KT 33/17 A3009 RMK A01 T03320172  RH  038%=      5-min Rain = 0
KPA1 111538Z 24011KT 33/18 A3009 RMK A01 T03330177  RH  040%=      5-min Rain = 0
KPA1 111539Z 23011KT 33/17 A3009 RMK A01 T03340170  RH  038%=      5-min Rain = 0
KPA1 111540Z 24009KT 33/17 A3009 RMK A01 T03320169  RH  038%=      5-min Rain = 0
KPA1 111541Z 23010KT 33/17 A3009 RMK A01 T03310171  RH  038%=      5-min Rain = 0
KPA1 111542Z 23012KT 33/17 A3009 RMK A01 T03320171  RH  038%=      5-min Rain = 0
KPA1 111543Z 23011KT 33/17 A3009 RMK A01 T03330172  RH  038%=      5-min Rain = 0
KPA1 111544Z 22011KT 33/17 A3009 RMK A01 T03330173  RH  039%=      5-min Rain = 0
KPA1 111545Z 24009KT 33/17 A3009 RMK A01 T03330174  RH  039%=      5-min Rain = 0
KPA1 111546Z 23010KT 34/18 A3009 RMK A01 T03350176  RH  039%=      5-min Rain = 0
KPA1 111547Z 23009KT 34/18 A3009 RMK A01 T03380178  RH  039%=      5-min Rain = 0
KPA1 111548Z 24011KT 34/18 A3009 RMK A01 T03410177  RH  038%=      5-min Rain = 0
KPA1 111549Z 24010KT 34/17 A3009 RMK A01 T03410173  RH  037%=      5-min Rain = 0
KPA1 111550Z 24009KT 34/17 A3009 RMK A01 T03400172  RH  037%=      5-min Rain = 0
KPA1 111551Z 24009KT 34/17 A3009 RMK A01 T03390173  RH  037%=      5-min Rain = 0
KPA1 111552Z 24008KT 34/18 A3009 RMK A01 T03400177  RH  038%=      5-min Rain = 0
KPA1 111553Z 23009KT 34/18 A3009 RMK A01 T03420175  RH  037%=      5-min Rain = 0
KPA1 111554Z 22012KT 34/17 A3009 RMK A01 T03420174  RH  037%=      5-min Rain = 0
KPA1 111555Z 23011KT 34/17 A3009 RMK A01 T03440172  RH  036%=      5-min Rain = 0
KPA1 111556Z 22010KT 35/17 A301 RMK A01 T03450174  RH  036%=      5-min Rain = 0
KPA1 111557Z 23011KT 35/18 A301 RMK A01 T03470177  RH  036%=      5-min Rain = 0
KPA1 111558Z 23010KT 35/17 A301 RMK A01 T03470170  RH  035%=      5-min Rain = 0
KPA1 111559Z 23009KT 35/18 A301 RMK A01 T03460175  RH  036%=      5-min Rain = 0
KPA1 111600Z 23010KT 35/17 A301 RMK A01 T03470173  RH  036%=      5-min Rain = 0
KPA1 111601Z 24009KT 35/17 A301 RMK A01 T03480173  RH  035%=      5-min Rain = 0
KPA1 111602Z 23010KT 35/17 A301 RMK A01 T03490171  RH  035%=      5-min Rain = 0
KPA1 111603Z 22010KT 35/17 A301 RMK A01 T03480168  RH  034%=      5-min Rain = 0
KPA1 111604Z 21010KT 35/17 A301 RMK A01 T03460168  RH  035%=      5-min Rain = 0
KPA1 111605Z 22009KT 35/17 A301 RMK A01 T03460168  RH  035%=      5-min Rain = 0
KPA1 111606Z 23011KT 35/17 A301 RMK A01 T03460170  RH  035%=      5-min Rain = 0
KPA1 111607Z 22010KT 35/17 A301 RMK A01 T03470168  RH  034%=      5-min Rain = 0
KPA1 111608Z 22009KT 35/17 A301 RMK A01 T03480169  RH  034%=      5-min Rain = 0
KPA1 111609Z 21010KT 35/17 A301 RMK A01 T03480171  RH  035%=      5-min Rain = 0
KPA1 111610Z 21010KT 35/17 A301 RMK A01 T03490167  RH  034%=      5-min Rain = 0
KPA1 111611Z 23010KT 35/17 A301 RMK A01 T03490170  RH  034%=      5-min Rain = 0
KPA1 111612Z 22009KT 35/17 A301 RMK A01 T03510171  RH  034%=      5-min Rain = 0
KPA1 111613Z 22010KT 35/17 A301 RMK A01 T03520171  RH  034%=      5-min Rain = 0
KPA1 111614Z 21012KT 35/17 A301 RMK A01 T03520167  RH  033%=      5-min Rain = 0
KPA1 111615Z 21009KT 35/17 A301 RMK A01 T03510165  RH  033%=      5-min Rain = 0
KPA1 111616Z 22012KT 35/17 A301 RMK A01 T03510168  RH  034%=      5-min Rain = 0
KPA1 111617Z 22012KT 35/17 A301 RMK A01 T03530165  RH  033%=      5-min Rain = 0
KPA1 111618Z 22012KT 35/17 A301 RMK A01 T03530167  RH  033%=      5-min Rain = 0
KPA1 111619Z 22009KT 35/16 A301 RMK A01 T03530163  RH  032%=      5-min Rain = 0
KPA1 111620Z 22008KT 35/17 A301 RMK A01 T03530165  RH  033%=      5-min Rain = 0
KPA1 111621Z 22011KT 36/17 A301 RMK A01 T03560171  RH  034%=      5-min Rain = 0
KPA1 111622Z 23011KT 36/17 A301 RMK A01 T03570168  RH  033%=      5-min Rain = 0
KPA1 111623Z 22010KT 36/16 A301 RMK A01 T03560161  RH  031%=      5-min Rain = 0
KPA1 111624Z 22009KT 35/16 A301 RMK A01 T03540163  RH  032%=      5-min Rain = 0
KPA1 111625Z 22012KT 36/17 A301 RMK A01 T03550165  RH  032%=      5-min Rain = 0
KPA1 111626Z 22012KT 36/17 A301 RMK A01 T03550165  RH  032%=      5-min Rain = 0
KPA1 111627Z 21010KT 36/16 A301 RMK A01 T03570164  RH  032%=      5-min Rain = 0
KPA1 111628Z 21009KT 36/16 A301 RMK A01 T03570161  RH  031%=      5-min Rain = 0
KPA1 111629Z 20010KT 36/16 A301 RMK A01 T03580163  RH  032%=      5-min Rain = 0
KPA1 111630Z 21010KT 36/17 A301 RMK A01 T03600166  RH  032%=      5-min Rain = 0
KPA1 111631Z 21010KT 36/16 A301 RMK A01 T03610160  RH  030%=      5-min Rain = 0
KPA1 111632Z 21010KT 36/16 A301 RMK A01 T03590163  RH  031%=      5-min Rain = 0
KPA1 111633Z 21012KT 36/16 A301 RMK A01 T03600163  RH  031%=      5-min Rain = 0
KPA1 111634Z 22010KT 36/16 A301 RMK A01 T03610156  RH  030%=      5-min Rain = 0
KPA1 111635Z 22009KT 36/16 A301 RMK A01 T03600164  RH  032%=      5-min Rain = 0
KPA1 111636Z 22009KT 36/16 A301 RMK A01 T03600160  RH  030%=      5-min Rain = 0
KPA1 111637Z 22010KT 36/16 A301 RMK A01 T03590163  RH  031%=      5-min Rain = 0
KPA1 111638Z 23009KT 36/16 A301 RMK A01 T03590160  RH  031%=      5-min Rain = 0
KPA1 111639Z 22007KT 36/16 A301 RMK A01 T03600161  RH  031%=      5-min Rain = 0
KPA1 111640Z 22008KT 36/16 A301 RMK A01 T03610163  RH  031%=      5-min Rain = 0
KPA1 111641Z 21009KT 36/16 A301 RMK A01 T03630162  RH  030%=      5-min Rain = 0
KPA1 111642Z 20010KT 37/16 A301 RMK A01 T03650161  RH  030%=      5-min Rain = 0
KPA1 111643Z 21007KT 37/16 A301 RMK A01 T03660157  RH  029%=      5-min Rain = 0
KPA1 111644Z 21009KT 37/16 A301 RMK A01 T03660162  RH  030%=      5-min Rain = 0
KPA1 111645Z 20009KT 37/16 A301 RMK A01 T03670157  RH  029%=      5-min Rain = 0
KPA1 111646Z 21007KT 37/16 A301 RMK A01 T03650160  RH  030%=      5-min Rain = 0
KPA1 111647Z 20008KT 37/17 A301 RMK A01 T03670168  RH  031%=      5-min Rain = 0
KPA1 111648Z 22007KT 37/17 A301 RMK A01 T03690165  RH  030%=      5-min Rain = 0
KPA1 111649Z 23009KT 37/16 A301 RMK A01 T03680161  RH  029%=      5-min Rain = 0
KPA1 111650Z 22008KT 37/16 A301 RMK A01 T03670155  RH  029%=      5-min Rain = 0
KPA1 111651Z 22011KT 37/16 A301 RMK A01 T03670156  RH  029%=      5-min Rain = 0
KPA1 111652Z 22008KT 37/15 A301 RMK A01 T03680151  RH  028%=      5-min Rain = 0
KPA1 111653Z 21007KT 37/16 A301 RMK A01 T03680157  RH  029%=      5-min Rain = 0
KPA1 111654Z 20005KT 37/16 A301 RMK A01 T03680157  RH  029%=      5-min Rain = 0
KPA1 111655Z 20006KT 37/16 A301 RMK A01 T03700155  RH  028%=      5-min Rain = 0
KPA1 111656Z 23011KT 37/16 A301 RMK A01 T03710158  RH  028%=      5-min Rain = 0
KPA1 111657Z 23010KT 37/15 A301 RMK A01 T03720152  RH  027%=      5-min Rain = 0
KPA1 111658Z 24008KT 37/15 A301 RMK A01 T03720151  RH  027%=      5-min Rain = 0
KPA1 111659Z 23010KT 37/15 A301 RMK A01 T03720152  RH  027%=      5-min Rain = 0
KPA1 111700Z 24009KT 37/15 A301 RMK A01 T03700150  RH  027%=      5-min Rain = 0
KPA1 111701Z 23007KT 37/15 A301 RMK A01 T03690151  RH  027%=      5-min Rain = 0
KPA1 111702Z 22008KT 37/15 A301 RMK A01 T03700154  RH  028%=      5-min Rain = 0
KPA1 111703Z 17008KT 38/17 A301 RMK A01 T03750167  RH  030%=      5-min Rain = 0
KPA1 111704Z 16009KT 38/17 A301 RMK A01 T03770165  RH  029%=      5-min Rain = 0
KPA1 111705Z 17008KT 38/17 A301 RMK A01 T03770167  RH  029%=      5-min Rain = 0
KPA1 111706Z 16008KT 38/17 A301 RMK A01 T03760167  RH  029%=      5-min Rain = 0
KPA1 111707Z 17008KT 38/17 A301 RMK A01 T03750166  RH  029%=      5-min Rain = 0
KPA1 111708Z 17010KT 38/17 A301 RMK A01 T03750168  RH  030%=      5-min Rain = 0
KPA1 111709Z 16010KT 38/17 A301 RMK A01 T03770165  RH  029%=      5-min Rain = 0
KPA1 111710Z 17009KT 38/17 A301 RMK A01 T03760165  RH  029%=      5-min Rain = 0
KPA1 111711Z 16007KT 37/17 A301 RMK A01 T03740165  RH  029%=      5-min Rain = 0
KPA1 111712Z 16009KT 38/16 A301 RMK A01 T03770162  RH  028%=      5-min Rain = 0
KPA1 111713Z 18012KT 38/16 A301 RMK A01 T03780161  RH  028%=      5-min Rain = 0
KPA1 111714Z 19010KT 38/15 A301 RMK A01 T03790150  RH  026%=      5-min Rain = 0
KPA1 111715Z 19011KT 38/15 A301 RMK A01 T03780153  RH  026%=      5-min Rain = 0
KPA1 111716Z 22010KT 38/15 A301 RMK A01 T03790153  RH  026%=      5-min Rain = 0
KPA1 111717Z 22010KT 38/15 A301 RMK A01 T03780152  RH  026%=      5-min Rain = 0
KPA1 111718Z 22008KT 38/15 A301 RMK A01 T03760145  RH  025%=      5-min Rain = 0
KPA1 111719Z 23007KT 37/15 A3009 RMK A01 T03740148  RH  026%=      5-min Rain = 0
KPA1 111720Z 20009KT 37/15 A3009 RMK A01 T03740154  RH  027%=      5-min Rain = 0
KPA1 111721Z 20009KT 38/15 A3009 RMK A01 T03770154  RH  027%=      5-min Rain = 0
KPA1 111722Z 18010KT 38/15 A3009 RMK A01 T03800154  RH  026%=      5-min Rain = 0
KPA1 111723Z 18013KT 38/15 A3009 RMK A01 T03830151  RH  025%=      5-min Rain = 0
KPA1 111724Z 19009KT 38/15 A3009 RMK A01 T03840146  RH  025%=      5-min Rain = 0
KPA1 111725Z 18011KT 38/15 A3009 RMK A01 T03840151  RH  025%=      5-min Rain = 0
KPA1 111726Z 17010KT 38/16 A3009 RMK A01 T03840155  RH  026%=      5-min Rain = 0
KPA1 111727Z 17012KT 39/14 A3009 RMK A01 T03880142  RH  023%=      5-min Rain = 0
KPA1 111728Z 18011KT 39/14 A3009 RMK A01 T03870141  RH  023%=      5-min Rain = 0
KPA1 111729Z 18010KT 39/15 A3009 RMK A01 T03850146  RH  024%=      5-min Rain = 0
KPA1 111730Z 19008KT 39/15 A3009 RMK A01 T03860153  RH  025%=      5-min Rain = 0
KPA1 111731Z 19010KT 39/16 A3009 RMK A01 T03880160  RH  026%=      5-min Rain = 0
KPA1 111732Z 17012KT 39/14 A3009 RMK A01 T03910143  RH  023%=      5-min Rain = 0
KPA1 111733Z 17011KT 39/14 A3009 RMK A01 T03910140  RH  023%=      5-min Rain = 0
KPA1 111734Z 18012KT 39/14 A3009 RMK A01 T03910138  RH  022%=      5-min Rain = 0
KPA1 111735Z 18009KT 39/14 A3009 RMK A01 T03900143  RH  023%=      5-min Rain = 0
KPA1 111736Z 20009KT 39/15 A3009 RMK A01 T03910149  RH  024%=      5-min Rain = 0
KPA1 111737Z 17008G14KT 39/14 A3009 RMK A01 T03920144  RH  023%=      5-min Rain = 0
KPA1 111738Z 17012KT 39/13 A3009 RMK A01 T03920133  RH  022%=      5-min Rain = 0
KPA1 111739Z 18014KT 39/13 A3009 RMK A01 T03910133  RH  022%=      5-min Rain = 0
KPA1 111740Z 18012KT 39/14 A3009 RMK A01 T03890135  RH  022%=      5-min Rain = 0
KPA1 111741Z 17013KT 39/14 A3009 RMK A01 T03870137  RH  023%=      5-min Rain = 0
KPA1 111742Z 18012G17KT 39/15 A3009 RMK A01 T03880145  RH  024%=      5-min Rain = 0
KPA1 111743Z 16009KT 39/15 A3009 RMK A01 T03870147  RH  024%=      5-min Rain = 0
KPA1 111744Z 15009KT 39/15 A3009 RMK A01 T03870151  RH  025%=      5-min Rain = 0
KPA1 111745Z 16011KT 39/15 A3009 RMK A01 T03870152  RH  025%=      5-min Rain = 0
KPA1 111746Z 17012KT 39/15 A3009 RMK A01 T03900152  RH  025%=      5-min Rain = 0
KPA1 111747Z 16014KT 39/15 A3008 RMK A01 T03890149  RH  024%=      5-min Rain = 0
KPA1 111748Z 16012KT 39/14 A3008 RMK A01 T03880144  RH  024%=      5-min Rain = 0
KPA1 111749Z 16011KT 39/15 A3008 RMK A01 T03880149  RH  025%=      5-min Rain = 0
KPA1 111750Z 16011KT 39/15 A3008 RMK A01 T03880150  RH  025%=      5-min Rain = 0
KPA1 111751Z 17010KT 39/15 A3008 RMK A01 T03870149  RH  025%=      5-min Rain = 0
KPA1 111752Z 16013KT 39/14 A3008 RMK A01 T03890142  RH  023%=      5-min Rain = 0
KPA1 111753Z 17016KT 39/14 A3008 RMK A01 T03910137  RH  022%=      5-min Rain = 0
KPA1 111754Z 17012KT 39/13 A3008 RMK A01 T03910134  RH  022%=      5-min Rain = 0
KPA1 111755Z 19013KT 39/14 A3008 RMK A01 T03940142  RH  023%=      5-min Rain = 0
KPA1 111756Z 18013KT 40/13 A3008 RMK A01 T03950134  RH  021%=      5-min Rain = 0
KPA1 111757Z 18014KT 39/14 A3009 RMK A01 T03940136  RH  022%=      5-min Rain = 0
KPA1 111758Z 18011KT 39/14 A3008 RMK A01 T03940136  RH  022%=      5-min Rain = 0
KPA1 111759Z 18010KT 40/14 A3008 RMK A01 T03950137  RH  022%=      5-min Rain = 0
KPA1 111800Z 17009KT 40/14 A3008 RMK A01 T03950136  RH  022%=      5-min Rain = 0
KPA1 111801Z 17009KT 40/14 A3008 RMK A01 T03960138  RH  022%=      5-min Rain = 0
KPA1 111802Z 18011KT 40/15 A3008 RMK A01 T03960147  RH  023%=      5-min Rain = 0
KPA1 111803Z 18010KT 40/14 A3008 RMK A01 T03980144  RH  022%=      5-min Rain = 0
KPA1 111804Z 19009KT 40/15 A3008 RMK A01 T03960149  RH  024%=      5-min Rain = 0
KPA1 111805Z 17009KT 40/15 A3008 RMK A01 T03970154  RH  024%=      5-min Rain = 0
KPA1 111806Z 19011KT 40/15 A3008 RMK A01 T03990145  RH  022%=      5-min Rain = 0
KPA1 111807Z 20009KT 40/15 A3008 RMK A01 T03990146  RH  023%=      5-min Rain = 0
KPA1 111808Z 19011KT 40/14 A3008 RMK A01 T04000144  RH  022%=      5-min Rain = 0
KPA1 111809Z 18012KT 40/14 A3008 RMK A01 T03980135  RH  021%=      5-min Rain = 0
KPA1 111810Z 18013KT 40/13 A3008 RMK A01 T03960133  RH  021%=      5-min Rain = 0
KPA1 111811Z 18011KT 40/14 A3008 RMK A01 T03970137  RH  022%=      5-min Rain = 0
KPA1 111812Z 16013KT 40/14 A3008 RMK A01 T03990135  RH  021%=      5-min Rain = 0
KPA1 111813Z 16012KT 40/13 A3008 RMK A01 T03990131  RH  020%=      5-min Rain = 0
KPA1 111814Z 17013KT 40/13 A3008 RMK A01 T03980134  RH  021%=      5-min Rain = 0
KPA1 111815Z 17011KT 40/13 A3008 RMK A01 T03970133  RH  021%=      5-min Rain = 0
KPA1 111816Z 18009KT 40/13 A3008 RMK A01 T03970133  RH  021%=      5-min Rain = 0
KPA1 111817Z 19011KT 40/14 A3008 RMK A01 T03970140  RH  022%=      5-min Rain = 0
KPA1 111818Z 19015KT 40/14 A3008 RMK A01 T03970144  RH  023%=      5-min Rain = 0
KPA1 111819Z 18015KT 40/13 A3008 RMK A01 T03980131  RH  021%=      5-min Rain = 0
KPA1 111820Z 18019KT 40/12 A3008 RMK A01 T04010120  RH  019%=      5-min Rain = 0
KPA1 111821Z 18013KT 40/12 A3008 RMK A01 T04010117  RH  019%=      5-min Rain = 0
KPA1 111822Z 17012KT 40/12 A3008 RMK A01 T04010120  RH  019%=      5-min Rain = 0
KPA1 111823Z 16014KT 40/12 A3008 RMK A01 T04020124  RH  019%=      5-min Rain = 0
KPA1 111824Z 17017KT 40/12 A3008 RMK A01 T04020122  RH  019%=      5-min Rain = 0
KPA1 111825Z 19015KT 40/12 A3008 RMK A01 T04020116  RH  018%=      5-min Rain = 0
KPA1 111826Z 17015KT 40/12 A3008 RMK A01 T04030117  RH  018%=      5-min Rain = 0
KPA1 111827Z 17014KT 40/12 A3008 RMK A01 T04040117  RH  018%=      5-min Rain = 0
KPA1 111828Z 18013KT 41/12 A3007 RMK A01 T04070119  RH  018%=      5-min Rain = 0
KPA1 111829Z 19014KT 41/12 A3007 RMK A01 T04080117  RH  018%=      5-min Rain = 0
KPA1 111830Z 17014KT 41/12 A3007 RMK A01 T04060121  RH  019%=      5-min Rain = 0
KPA1 111831Z 19017KT 41/12 A3007 RMK A01 T04060121  RH  018%=      5-min Rain = 0
KPA1 111832Z 18016KT 41/12 A3007 RMK A01 T04060116  RH  018%=      5-min Rain = 0
KPA1 111833Z 19015KT 41/12 A3007 RMK A01 T04060117  RH  018%=      5-min Rain = 0
KPA1 111834Z 19014KT 41/11 A3007 RMK A01 T04060114  RH  018%=      5-min Rain = 0
KPA1 111835Z 20013KT 40/12 A3007 RMK A01 T04040119  RH  018%=      5-min Rain = 0
KPA1 111836Z 19018KT 41/13 A3007 RMK A01 T04050129  RH  020%=      5-min Rain = 0
KPA1 111837Z 19015KT 41/12 A3007 RMK A01 T04050115  RH  018%=      5-min Rain = 0
KPA1 111838Z 19014KT 40/12 A3007 RMK A01 T04040118  RH  018%=      5-min Rain = 0
KPA1 111839Z 19015G20KT 40/12 A3007 RMK A01 T04040115  RH  018%=      5-min Rain = 0
KPA1 111840Z 18016KT 40/11 A3007 RMK A01 T04030112  RH  018%=      5-min Rain = 0
KPA1 111841Z 18012KT 40/11 A3007 RMK A01 T04030107  RH  017%=      5-min Rain = 0
KPA1 111842Z 17013KT 40/11 A3007 RMK A01 T04020109  RH  017%=      5-min Rain = 0
KPA1 111843Z 18015KT 41/12 A3007 RMK A01 T04050115  RH  018%=      5-min Rain = 0
KPA1 111844Z 18016KT 41/11 A3007 RMK A01 T04070113  RH  017%=      5-min Rain = 0
KPA1 111845Z 18017KT 41/11 A3007 RMK A01 T04080112  RH  017%=      5-min Rain = 0
KPA1 111846Z 19015KT 41/12 A3007 RMK A01 T04090115  RH  018%=      5-min Rain = 0
KPA1 111847Z 20013KT 41/11 A3007 RMK A01 T04070112  RH  017%=      5-min Rain = 0
KPA1 111848Z 18011KT 41/12 A3007 RMK A01 T04060120  RH  018%=      5-min Rain = 0
KPA1 111849Z 17013KT 41/11 A3007 RMK A01 T04080114  RH  018%=      5-min Rain = 0
KPA1 111850Z 18010KT 41/11 A3007 RMK A01 T04070110  RH  017%=      5-min Rain = 0
KPA1 111851Z 20016KT 41/12 A3007 RMK A01 T04060117  RH  018%=      5-min Rain = 0
KPA1 111852Z 20011KT 40/11 A3007 RMK A01 T04040113  RH  018%=      5-min Rain = 0
KPA1 111853Z 18014KT 41/13 A3006 RMK A01 T04060125  RH  019%=      5-min Rain = 0
KPA1 111854Z 17017KT 41/12 A3006 RMK A01 T04090118  RH  018%=      5-min Rain = 0
KPA1 111855Z 17016G21KT 41/11 A3006 RMK A01 T04100112  RH  017%=      5-min Rain = 0
KPA1 111856Z 17015KT 41/11 A3006 RMK A01 T04090111  RH  017%=      5-min Rain = 0
KPA1 111857Z 18013KT 41/11 A3006 RMK A01 T04080111  RH  017%=      5-min Rain = 0
KPA1 111858Z 19014KT 41/12 A3006 RMK A01 T04070118  RH  018%=      5-min Rain = 0
KPA1 111859Z 20012KT 40/12 A3006 RMK A01 T04040118  RH  018%=      5-min Rain = 0
KPA1 111900Z 18013KT 40/12 A3006 RMK A01 T04040117  RH  018%=      5-min Rain = 0
KPA1 111901Z 18012G17KT 41/12 A3006 RMK A01 T04060124  RH  019%=      5-min Rain = 0
KPA1 111902Z 18016G22KT 41/13 A3006 RMK A01 T04090131  RH  019%=      5-min Rain = 0
KPA1 111903Z 18017KT 41/13 A3006 RMK A01 T04110132  RH  019%=      5-min Rain = 0
KPA1 111904Z 18018G23KT 41/12 A3006 RMK A01 T04110120  RH  018%=      5-min Rain = 0
KPA1 111905Z 18013G21KT 41/12 A3006 RMK A01 T04090120  RH  018%=      5-min Rain = 0
KPA1 111906Z 18017KT 41/12 A3006 RMK A01 T04080116  RH  018%=      5-min Rain = 0
KPA1 111907Z 19014KT 41/12 A3006 RMK A01 T04090123  RH  018%=      5-min Rain = 0
KPA1 111908Z 19013G18KT 41/13 A3006 RMK A01 T04100125  RH  019%=      5-min Rain = 0
KPA1 111909Z 19013KT 41/12 A3006 RMK A01 T04100121  RH  018%=      5-min Rain = 0
KPA1 111910Z 18013KT 41/12 A3006 RMK A01 T04100119  RH  018%=      5-min Rain = 0
KPA1 111911Z 18013KT 41/11 A3006 RMK A01 T04100113  RH  017%=      5-min Rain = 0
KPA1 111912Z 18014KT 41/11 A3006 RMK A01 T04080108  RH  017%=      5-min Rain = 0
KPA1 111913Z 17014KT 41/11 A3005 RMK A01 T04070108  RH  017%=      5-min Rain = 0
KPA1 111914Z 16014KT 41/11 A3005 RMK A01 T04070109  RH  017%=      5-min Rain = 0
KPA1 111915Z 17019KT 41/12 A3005 RMK A01 T04080116  RH  018%=      5-min Rain = 0
KPA1 111916Z 18019KT 41/12 A3005 RMK A01 T04090115  RH  017%=      5-min Rain = 0
KPA1 111917Z 18017KT 41/11 A3005 RMK A01 T04080109  RH  017%=      5-min Rain = 0
KPA1 111918Z 18017KT 41/12 A3005 RMK A01 T04060117  RH  018%=      5-min Rain = 0
KPA1 111919Z 17014G19KT 41/12 A3005 RMK A01 T04070115  RH  018%=      5-min Rain = 0
KPA1 111920Z 17014KT 41/12 A3005 RMK A01 T04100119  RH  018%=      5-min Rain = 0
KPA1 111921Z 17016KT 41/12 A3005 RMK A01 T04140120  RH  018%=      5-min Rain = 0
KPA1 111922Z 17017KT 42/11 A3005 RMK A01 T04150112  RH  017%=      5-min Rain = 0
KPA1 111923Z 17016KT 41/11 A3005 RMK A01 T04140113  RH  017%=      5-min Rain = 0
KPA1 111924Z 17016KT 42/12 A3005 RMK A01 T04150115  RH  017%=      5-min Rain = 0
KPA1 111925Z 17016KT 42/11 A3005 RMK A01 T04150108  RH  016%=      5-min Rain = 0
KPA1 111926Z 17015KT 41/11 A3005 RMK A01 T04120111  RH  017%=      5-min Rain = 0
KPA1 111927Z 18014KT 41/11 A3005 RMK A01 T04120111  RH  017%=      5-min Rain = 0
KPA1 111928Z 18012KT 41/11 A3005 RMK A01 T04110110  RH  017%=      5-min Rain = 0
KPA1 111929Z 18011KT 41/11 A3005 RMK A01 T04100114  RH  017%=      5-min Rain = 0
KPA1 111930Z 19010KT 41/11 A3005 RMK A01 T04110112  RH  017%=      5-min Rain = 0
KPA1 111931Z 18012G19KT 41/12 A3005 RMK A01 T04120123  RH  018%=      5-min Rain = 0
KPA1 111932Z 18018KT 42/12 A3005 RMK A01 T04150119  RH  017%=      5-min Rain = 0
KPA1 111933Z 18019KT 42/12 A3005 RMK A01 T04160115  RH  017%=      5-min Rain = 0
KPA1 111934Z 19016KT 42/11 A3005 RMK A01 T04150114  RH  017%=      5-min Rain = 0
KPA1 111935Z 17017KT 41/11 A3005 RMK A01 T04140110  RH  017%=      5-min Rain = 0
KPA1 111936Z 18015KT 41/11 A3005 RMK A01 T04140107  RH  016%=      5-min Rain = 0
KPA1 111937Z 18011KT 41/10 A3005 RMK A01 T04130103  RH  016%=      5-min Rain = 0
KPA1 111938Z 17014KT 41/11 A3005 RMK A01 T04120109  RH  017%=      5-min Rain = 0
KPA1 111939Z 18014KT 41/11 A3005 RMK A01 T04140108  RH  016%=      5-min Rain = 0
KPA1 111940Z 17011KT 41/11 A3004 RMK A01 T04140110  RH  017%=      5-min Rain = 0
KPA1 111941Z 17011KT 42/11 A3004 RMK A01 T04170111  RH  016%=      5-min Rain = 0
KPA1 111942Z 17012KT 42/11 A3004 RMK A01 T04170110  RH  016%=      5-min Rain = 0
KPA1 111943Z 18015KT 42/11 A3004 RMK A01 T04170105  RH  016%=      5-min Rain = 0
KPA1 111944Z 17015KT 41/10 A3004 RMK A01 T04140100  RH  015%=      5-min Rain = 0
KPA1 111945Z 17013KT 41/11 A3004 RMK A01 T04130106  RH  016%=      5-min Rain = 0
KPA1 111946Z 17019KT 42/11 A3004 RMK A01 T04160109  RH  016%=      5-min Rain = 0
KPA1 111947Z 17016KT 42/10 A3004 RMK A01 T04170104  RH  016%=      5-min Rain = 0
KPA1 111948Z 18012KT 42/10 A3004 RMK A01 T04150104  RH  016%=      5-min Rain = 0
KPA1 111949Z 19012KT 42/10 A3004 RMK A01 T04160102  RH  016%=      5-min Rain = 0
KPA1 111950Z 21010KT 42/11 A3004 RMK A01 T04150112  RH  017%=      5-min Rain = 0
KPA1 111951Z 19011KT 41/11 A3004 RMK A01 T04140108  RH  016%=      5-min Rain = 0
KPA1 111952Z 17009KT 41/11 A3004 RMK A01 T04130107  RH  016%=      5-min Rain = 0
KPA1 111953Z 17011KT 42/12 A3004 RMK A01 T04160124  RH  018%=      5-min Rain = 0
KPA1 111954Z 17016KT 42/12 A3004 RMK A01 T04200116  RH  017%=      5-min Rain = 0
KPA1 111955Z 17013KT 42/10 A3004 RMK A01 T04190103  RH  015%=      5-min Rain = 0
KPA1 111956Z 18012KT 42/11 A3004 RMK A01 T04180111  RH  016%=      5-min Rain = 0
KPA1 111957Z 19015KT 42/12 A3004 RMK A01 T04210118  RH  017%=      5-min Rain = 0
KPA1 111958Z 20014KT 42/11 A3004 RMK A01 T04220110  RH  016%=      5-min Rain = 0
KPA1 111959Z 21011KT 42/10 A3004 RMK A01 T04160103  RH  016%=      5-min Rain = 0
KPA1 112000Z 21013KT 42/11 A3004 RMK A01 T04150108  RH  016%=      5-min Rain = 0
KPA1 112001Z 21013KT 42/10 A3004 RMK A01 T04150099  RH  015%=      5-min Rain = 0
KPA1 112002Z 20012KT 41/10 A3004 RMK A01 T04120100  RH  016%=      5-min Rain = 0
KPA1 112003Z 20009KT 41/10 A3004 RMK A01 T04120096  RH  015%=      5-min Rain = 0
KPA1 112004Z 20011KT 41/10 A3004 RMK A01 T04120097  RH  015%=      5-min Rain = 0
KPA1 112005Z 18015KT 41/10 A3004 RMK A01 T04140103  RH  016%=      5-min Rain = 0
KPA1 112006Z 19014KT 42/10 A3004 RMK A01 T04150100  RH  015%=      5-min Rain = 0
KPA1 112007Z 20012KT 41/10 A3004 RMK A01 T04140100  RH  015%=      5-min Rain = 0
KPA1 112008Z 20012KT 41/10 A3004 RMK A01 T04120103  RH  016%=      5-min Rain = 0
KPA1 112009Z 21012KT 41/11 A3004 RMK A01 T04140111  RH  017%=      5-min Rain = 0
KPA1 112010Z 22015G20KT 41/10 A3004 RMK A01 T04140100  RH  015%=      5-min Rain = 0
KPA1 112011Z 22013KT 41/09 A3004 RMK A01 T04120092  RH  015%=      5-min Rain = 0
KPA1 112012Z 21012KT 41/10 A3004 RMK A01 T04100100  RH  016%=      5-min Rain = 0
KPA1 112013Z 20011KT 41/11 A3004 RMK A01 T04120109  RH  017%=      5-min Rain = 0
KPA1 112014Z 21010KT 42/12 A3003 RMK A01 T04150116  RH  017%=      5-min Rain = 0
KPA1 112015Z 20014KT 42/10 A3003 RMK A01 T04170104  RH  016%=      5-min Rain = 0
KPA1 112016Z 22016G24KT 42/10 A3003 RMK A01 T04160100  RH  015%=      5-min Rain = 0
KPA1 112017Z 19015KT 41/10 A3003 RMK A01 T04140100  RH  015%=      5-min Rain = 0
KPA1 112018Z 17013KT 41/10 A3004 RMK A01 T04140101  RH  016%=      5-min Rain = 0
KPA1 112019Z 18011KT 41/10 A3004 RMK A01 T04140104  RH  016%=      5-min Rain = 0
KPA1 112020Z 17015KT 42/10 A3003 RMK A01 T04160104  RH  016%=      5-min Rain = 0
KPA1 112021Z 17016KT 42/10 A3003 RMK A01 T04170101  RH  015%=      5-min Rain = 0
KPA1 112022Z 17011KT 42/11 A3003 RMK A01 T04170110  RH  016%=      5-min Rain = 0
KPA1 112023Z 17015KT 42/10 A3003 RMK A01 T04220104  RH  015%=      5-min Rain = 0
KPA1 112024Z 18017KT 42/11 A3003 RMK A01 T04220111  RH  016%=      5-min Rain = 0
KPA1 112025Z 20017G22KT 42/11 A3003 RMK A01 T04210113  RH  016%=      5-min Rain = 0
KPA1 112026Z 20015KT 42/11 A3003 RMK A01 T04200112  RH  016%=      5-min Rain = 0
KPA1 112027Z 21014KT 42/10 A3003 RMK A01 T04180100  RH  015%=      5-min Rain = 0
KPA1 112028Z 19012KT 42/10 A3003 RMK A01 T04180100  RH  015%=      5-min Rain = 0
KPA1 112029Z 19012KT 42/11 A3003 RMK A01 T04180108  RH  016%=      5-min Rain = 0
KPA1 112030Z 19010KT 42/10 A3003 RMK A01 T04180104  RH  016%=      5-min Rain = 0
KPA1 112031Z 20009KT 42/10 A3003 RMK A01 T04170103  RH  015%=      5-min Rain = 0
KPA1 112032Z 23011KT 42/11 A3003 RMK A01 T04160107  RH  016%=      5-min Rain = 0
KPA1 112033Z 22016KT 42/11 A3003 RMK A01 T04150110  RH  016%=      5-min Rain = 0
KPA1 112034Z 21015KT 42/10 A3003 RMK A01 T04150101  RH  015%=      5-min Rain = 0
KPA1 112035Z 22016KT 42/11 A3003 RMK A01 T04150107  RH  016%=      5-min Rain = 0
KPA1 112036Z 21015G21KT 42/11 A3003 RMK A01 T04150108  RH  016%=      5-min Rain = 0
KPA1 112037Z 21014KT 42/10 A3003 RMK A01 T04150099  RH  015%=      5-min Rain = 0
KPA1 112038Z 21010KT 41/09 A3003 RMK A01 T04130091  RH  015%=      5-min Rain = 0
KPA1 112039Z 20009KT 41/09 A3003 RMK A01 T04110092  RH  015%=      5-min Rain = 0
KPA1 112040Z 19010KT 41/10 A3002 RMK A01 T04100101  RH  016%=      5-min Rain = 0
KPA1 112041Z 17008KT 42/11 A3002 RMK A01 T04150110  RH  016%=      5-min Rain = 0
KPA1 112042Z 17007G13KT 42/11 A3002 RMK A01 T04220106  RH  015%=      5-min Rain = 0
KPA1 112043Z 18012KT 43/10 A3002 RMK A01 T04250102  RH  015%=      5-min Rain = 0
KPA1 112044Z 18014KT 42/11 A3002 RMK A01 T04230107  RH  015%=      5-min Rain = 0
KPA1 112045Z 18011G17KT 42/11 A3002 RMK A01 T04210110  RH  016%=      5-min Rain = 0
KPA1 112046Z 18012KT 42/11 A3002 RMK A01 T04200108  RH  016%=      5-min Rain = 0
KPA1 112047Z 17012KT 42/10 A3002 RMK A01 T04220101  RH  015%=      5-min Rain = 0
KPA1 112048Z 17015KT 43/11 A3002 RMK A01 T04250106  RH  015%=      5-min Rain = 0
KPA1 112049Z 17016KT 43/09 A3002 RMK A01 T04250094  RH  014%=      5-min Rain = 0
KPA1 112050Z 17014KT 42/09 A3002 RMK A01 T04220092  RH  014%=      5-min Rain = 0
KPA1 112051Z 16016KT 42/09 A3002 RMK A01 T04200091  RH  014%=      5-min Rain = 0
KPA1 112052Z 18015KT 42/09 A3001 RMK A01 T04190093  RH  014%=      5-min Rain = 0
KPA1 112053Z 19014G20KT 42/10 A3002 RMK A01 T04190104  RH  015%=      5-min Rain = 0
KPA1 112054Z 17014G19KT 42/11 A3001 RMK A01 T04210107  RH  016%=      5-min Rain = 0
KPA1 112055Z 18018KT 42/10 A3001 RMK A01 T04230103  RH  015%=      5-min Rain = 0
KPA1 112056Z 17015KT 42/10 A3001 RMK A01 T04210097  RH  015%=      5-min Rain = 0
KPA1 112057Z 18012KT 42/10 A3001 RMK A01 T04210097  RH  015%=      5-min Rain = 0
KPA1 112058Z 18010KT 42/10 A3001 RMK A01 T04200096  RH  015%=      5-min Rain = 0
KPA1 112059Z 18010KT 42/10 A3001 RMK A01 T04200098  RH  015%=      5-min Rain = 0
KPA1 112100Z 18011KT 42/09 A3001 RMK A01 T04190092  RH  014%=      5-min Rain = 0
KPA1 112101Z 18011G18KT 42/10 A3001 RMK A01 T04170098  RH  015%=      5-min Rain = 0
KPA1 112102Z 20016G22KT 42/10 A3001 RMK A01 T04190103  RH  015%=      5-min Rain = 0
KPA1 112103Z 19013G18KT 42/11 A3001 RMK A01 T04200108  RH  016%=      5-min Rain = 0
KPA1 112104Z 20016KT 42/10 A3001 RMK A01 T04200100  RH  015%=      5-min Rain = 0
KPA1 112105Z 20013KT 42/10 A3001 RMK A01 T04170096  RH  015%=      5-min Rain = 0
KPA1 112106Z 19012KT 42/10 A3001 RMK A01 T04160097  RH  015%=      5-min Rain = 0
KPA1 112107Z 19012KT 42/11 A3001 RMK A01 T04180107  RH  016%=      5-min Rain = 0
KPA1 112108Z 20014KT 42/10 A3001 RMK A01 T04190095  RH  015%=      5-min Rain = 0
KPA1 112109Z 20014KT 42/11 A3001 RMK A01 T04170107  RH  016%=      5-min Rain = 0
KPA1 112110Z 21016KT 42/10 A3001 RMK A01 T04160096  RH  015%=      5-min Rain = 0
KPA1 112111Z 20015KT 42/10 A3001 RMK A01 T04150096  RH  015%=      5-min Rain = 0
KPA1 112112Z 19016KT 42/09 A3001 RMK A01 T04150093  RH  015%=      5-min Rain = 0
KPA1 112113Z 19014KT 42/10 A3001 RMK A01 T04150097  RH  015%=      5-min Rain = 0
KPA1 112114Z 20014KT 42/10 A3001 RMK A01 T04150101  RH  015%=      5-min Rain = 0
KPA1 112115Z 20010KT 42/09 A3001 RMK A01 T04150091  RH  014%=      5-min Rain = 0
KPA1 112116Z 20010KT 42/09 A30 RMK A01 T04150094  RH  015%=      5-min Rain = 0
KPA1 112117Z 19013KT 42/11 A30 RMK A01 T04160108  RH  016%=      5-min Rain = 0
KPA1 112118Z 20013KT 42/10 A30 RMK A01 T04170103  RH  016%=      5-min Rain = 0
KPA1 112119Z 19012KT 42/10 A30 RMK A01 T04180102  RH  015%=      5-min Rain = 0
KPA1 112120Z 18007G12KT 42/10 A30 RMK A01 T04180097  RH  015%=      5-min Rain = 0
KPA1 112121Z 17009KT 42/09 A30 RMK A01 T04170091  RH  014%=      5-min Rain = 0
KPA1 112122Z 17009KT 42/09 A30 RMK A01 T04170093  RH  014%=      5-min Rain = 0
KPA1 112123Z 17014G19KT 42/10 A30 RMK A01 T04200100  RH  015%=      5-min Rain = 0
KPA1 112124Z 17015KT 42/10 A30 RMK A01 T04210095  RH  014%=      5-min Rain = 0
KPA1 112125Z 17012KT 42/09 A30 RMK A01 T04210091  RH  014%=      5-min Rain = 0
KPA1 112126Z 18012KT 42/10 A30 RMK A01 T04190096  RH  015%=      5-min Rain = 0
KPA1 112127Z 18011KT 42/10 A30 RMK A01 T04180098  RH  015%=      5-min Rain = 0
KPA1 112128Z 18014KT 42/11 A30 RMK A01 T04190105  RH  016%=      5-min Rain = 0
KPA1 112129Z 19014KT 42/10 A30 RMK A01 T04200104  RH  015%=      5-min Rain = 0
KPA1 112130Z 19016KT 42/10 A30 RMK A01 T04190102  RH  015%=      5-min Rain = 0
KPA1 112131Z 19016G21KT 42/10 A30 RMK A01 T04190103  RH  015%=      5-min Rain = 0
KPA1 112132Z 18014KT 42/10 A30 RMK A01 T04180100  RH  015%=      5-min Rain = 0
KPA1 112133Z 19017G23KT 42/10 A30 RMK A01 T04180101  RH  015%=      5-min Rain = 0
KPA1 112134Z 19015KT 42/10 A2999 RMK A01 T04160097  RH  015%=      5-min Rain = 0
KPA1 112135Z 18014KT 42/10 A2999 RMK A01 T04150097  RH  015%=      5-min Rain = 0
KPA1 112136Z 17014KT 42/09 A2999 RMK A01 T04170092  RH  014%=      5-min Rain = 0
KPA1 112137Z 17014KT 42/09 A2999 RMK A01 T04170093  RH  015%=      5-min Rain = 0
KPA1 112138Z 16013KT 42/10 A2999 RMK A01 T04170095  RH  015%=      5-min Rain = 0
KPA1 112139Z 17012KT 42/09 A2999 RMK A01 T04170092  RH  014%=      5-min Rain = 0
KPA1 112140Z 19013KT 42/10 A2999 RMK A01 T04150098  RH  015%=      5-min Rain = 0
KPA1 112141Z 19017KT 42/10 A2999 RMK A01 T04150103  RH  016%=      5-min Rain = 0
KPA1 112142Z 20015KT 41/10 A2999 RMK A01 T04100098  RH  016%=      5-min Rain = 0
KPA1 112143Z 19012KT 41/09 A2999 RMK A01 T04080093  RH  015%=      5-min Rain = 0
KPA1 112144Z 20011KT 41/09 A2999 RMK A01 T04070091  RH  015%=      5-min Rain = 0
KPA1 112145Z 19012KT 40/10 A2999 RMK A01 T04040101  RH  016%=      5-min Rain = 0
KPA1 112146Z 19011KT 40/11 A2999 RMK A01 T04040105  RH  017%=      5-min Rain = 0
KPA1 112147Z 19014KT 40/10 A2999 RMK A01 T04030101  RH  016%=      5-min Rain = 0
KPA1 112148Z 19010KT 40/09 A2999 RMK A01 T04010089  RH  015%=      5-min Rain = 0
KPA1 112149Z 19013KT 40/10 A2999 RMK A01 T03990098  RH  017%=      5-min Rain = 0
KPA1 112150Z 19016G21KT 40/11 A2999 RMK A01 T03960105  RH  018%=      5-min Rain = 0
KPA1 112151Z 19015KT 39/10 A2999 RMK A01 T03940098  RH  017%=      5-min Rain = 0
KPA1 112152Z 19015KT 39/10 A2999 RMK A01 T03930100  RH  017%=      5-min Rain = 0
KPA1 112153Z 20014KT 39/10 A2999 RMK A01 T03910098  RH  017%=      5-min Rain = 0
KPA1 112154Z 18012KT 39/10 A2998 RMK A01 T03910099  RH  017%=      5-min Rain = 0
KPA1 112155Z 18013KT 39/10 A2998 RMK A01 T03890104  RH  018%=      5-min Rain = 0
KPA1 112156Z 18016KT 39/10 A2998 RMK A01 T03890101  RH  018%=      5-min Rain = 0
KPA1 112157Z 18016KT 39/10 A2998 RMK A01 T03890103  RH  018%=      5-min Rain = 0
KPA1 112158Z 18018KT 39/11 A2998 RMK A01 T03880110  RH  019%=      5-min Rain = 0
KPA1 112159Z 18017KT 39/11 A2998 RMK A01 T03870114  RH  020%=      5-min Rain = 0
KPA1 112200Z 17013KT 39/12 A2998 RMK A01 T03860116  RH  020%=      5-min Rain = 0
KPA1 112201Z 17015KT 38/12 A2998 RMK A01 T03840116  RH  020%=      5-min Rain = 0
KPA1 112202Z 17017KT 38/11 A2998 RMK A01 T03840114  RH  020%=      5-min Rain = 0
KPA1 112203Z 16016KT 38/11 A2998 RMK A01 T03840113  RH  020%=      5-min Rain = 0
KPA1 112204Z 17014KT 38/11 A2998 RMK A01 T03840113  RH  020%=      5-min Rain = 0
KPA1 112205Z 17014KT 38/12 A2998 RMK A01 T03840116  RH  020%=      5-min Rain = 0
KPA1 112206Z 16018KT 38/12 A2998 RMK A01 T03840118  RH  020%=      5-min Rain = 0
KPA1 112207Z 16017KT 38/12 A2998 RMK A01 T03840118  RH  020%=      5-min Rain = 0
KPA1 112208Z 16016KT 38/12 A2998 RMK A01 T03840118  RH  020%=      5-min Rain = 0
KPA1 112209Z 16012KT 38/12 A2998 RMK A01 T03840120  RH  021%=      5-min Rain = 0
KPA1 112210Z 15011KT 38/12 A2998 RMK A01 T03830123  RH  021%=      5-min Rain = 0
KPA1 112211Z 15016G21KT 38/12 A2998 RMK A01 T03820123  RH  021%=      5-min Rain = 0
KPA1 112212Z 18015KT 38/12 A2998 RMK A01 T03810121  RH  021%=      5-min Rain = 0
KPA1 112213Z 18014KT 38/13 A2998 RMK A01 T03810127  RH  022%=      5-min Rain = 0
KPA1 112214Z 18014KT 38/13 A2998 RMK A01 T03780129  RH  023%=      5-min Rain = 0
KPA1 112215Z 18016KT 38/13 A2998 RMK A01 T03760129  RH  023%=      5-min Rain = 0
KPA1 112216Z 18014KT 37/13 A2998 RMK A01 T03740132  RH  024%=      5-min Rain = 0
KPA1 112217Z 18016KT 37/13 A2998 RMK A01 T03730131  RH  024%=      5-min Rain = 0
KPA1 112218Z 17013KT 37/13 A2998 RMK A01 T03730131  RH  024%=      5-min Rain = 0
KPA1 112219Z 17014KT 37/13 A2998 RMK A01 T03720130  RH  024%=      5-min Rain = 0
KPA1 112220Z 17014KT 37/13 A2998 RMK A01 T03720128  RH  023%=      5-min Rain = 0
KPA1 112221Z 17013KT 37/13 A2998 RMK A01 T03720127  RH  023%=      5-min Rain = 0
KPA1 112222Z 17014KT 37/13 A2998 RMK A01 T03730126  RH  023%=      5-min Rain = 0
KPA1 112223Z 16015G20KT 37/12 A2998 RMK A01 T03740124  RH  022%=      5-min Rain = 0
KPA1 112224Z 17015KT 38/12 A2998 RMK A01 T03760123  RH  022%=      5-min Rain = 0
KPA1 112225Z 17016KT 38/13 A2998 RMK A01 T03780127  RH  022%=      5-min Rain = 0
KPA1 112226Z 17015KT 38/14 A2998 RMK A01 T03760138  RH  024%=      5-min Rain = 0
KPA1 112227Z 17013KT 37/15 A2998 RMK A01 T03650152  RH  028%=      5-min Rain = 0
KPA1 112228Z 17016KT 35/16 A2998 RMK A01 T03520158  RH  031%=      5-min Rain = 0
KPA1 112229Z 18016KT 35/16 A2998 RMK A01 T03450160  RH  033%=      5-min Rain = 0
KPA1 112230Z 17016KT 34/16 A2998 RMK A01 T03400162  RH  035%=      5-min Rain = 0
KPA1 112231Z 17015KT 34/16 A2998 RMK A01 T03380162  RH  035%=      5-min Rain = 0
KPA1 112232Z 17014KT 34/17 A2998 RMK A01 T03370169  RH  037%=      5-min Rain = 0
KPA1 112233Z 16015KT 34/16 A2997 RMK A01 T03360162  RH  035%=      5-min Rain = 0
KPA1 112234Z 16014KT 34/16 A2997 RMK A01 T03390160  RH  034%=      5-min Rain = 0
KPA1 112235Z 17014KT 34/16 A2997 RMK A01 T03420161  RH  034%=      5-min Rain = 0
KPA1 112236Z 17014KT 34/16 A2997 RMK A01 T03430159  RH  034%=      5-min Rain = 0
KPA1 112237Z 17016KT 35/15 A2997 RMK A01 T03450152  RH  031%=      5-min Rain = 0
KPA1 112238Z 17017KT 35/15 A2997 RMK A01 T03500150  RH  030%=      5-min Rain = 0
KPA1 112239Z 17018KT 35/15 A2997 RMK A01 T03530145  RH  029%=      5-min Rain = 0
KPA1 112240Z 17018G23KT 36/15 A2997 RMK A01 T03550148  RH  029%=      5-min Rain = 0
KPA1 112241Z 17019KT 36/14 A2997 RMK A01 T03570139  RH  027%=      5-min Rain = 0
KPA1 112242Z 18017KT 36/14 A2997 RMK A01 T03610136  RH  026%=      5-min Rain = 0
KPA1 112243Z 18020KT 36/13 A2997 RMK A01 T03630134  RH  025%=      5-min Rain = 0
KPA1 112244Z 17017KT 36/14 A2997 RMK A01 T03640137  RH  026%=      5-min Rain = 0
KPA1 112245Z 17018G25KT 36/14 A2997 RMK A01 T03640139  RH  026%=      5-min Rain = 0
KPA1 112246Z 16020KT 36/13 A2997 RMK A01 T03640134  RH  025%=      5-min Rain = 0
KPA1 112247Z 17019G24KT 37/13 A2997 RMK A01 T03670129  RH  024%=      5-min Rain = 0
KPA1 112248Z 16024G31KT 37/13 A2996 RMK A01 T03700131  RH  024%=      5-min Rain = 0
KPA1 112249Z 16024G31KT 37/13 A2996 RMK A01 T03730127  RH  023%=      5-min Rain = 0
KPA1 112250Z 17024KT 38/13 A2996 RMK A01 T03750129  RH  023%=      5-min Rain = 0
KPA1 112251Z 17020KT 38/12 A2996 RMK A01 T03750124  RH  022%=      5-min Rain = 0
KPA1 112252Z 17019KT 38/13 A2996 RMK A01 T03770125  RH  022%=      5-min Rain = 0
KPA1 112253Z 17016KT 38/13 A2996 RMK A01 T03780129  RH  023%=      5-min Rain = 0
KPA1 112254Z 17018KT 38/13 A2996 RMK A01 T03790131  RH  023%=      5-min Rain = 0
KPA1 112255Z 18019G24KT 38/13 A2996 RMK A01 T03820127  RH  022%=      5-min Rain = 0
KPA1 112256Z 17018G23KT 39/13 A2996 RMK A01 T03850132  RH  022%=      5-min Rain = 0
KPA1 112257Z 18020KT 39/13 A2996 RMK A01 T03860126  RH  021%=      5-min Rain = 0
KPA1 112258Z 17019G24KT 38/13 A2996 RMK A01 T03840131  RH  022%=      5-min Rain = 0
KPA1 112259Z 17018KT 38/12 A2996 RMK A01 T03820122  RH  021%=      5-min Rain = 0
KPA1 112300Z 17020KT 38/12 A2995 RMK A01 T03820122  RH  021%=      5-min Rain = 0
KPA1 112301Z 17019G24KT 38/12 A2995 RMK A01 T03820120  RH  021%=      5-min Rain = 0
KPA1 112302Z 17020KT 38/12 A2995 RMK A01 T03830119  RH  021%=      5-min Rain = 0
KPA1 112303Z 18022KT 39/12 A2995 RMK A01 T03860121  RH  021%=      5-min Rain = 0
KPA1 112304Z 17025KT 39/12 A2995 RMK A01 T03900117  RH  020%=      5-min Rain = 0
KPA1 112305Z 17023G28KT 39/12 A2995 RMK A01 T03910117  RH  019%=      5-min Rain = 0
KPA1 112306Z 16025G30KT 39/12 A2995 RMK A01 T03910116  RH  019%=      5-min Rain = 0
KPA1 112307Z 17025KT 39/12 A2995 RMK A01 T03930116  RH  019%=      5-min Rain = 0
KPA1 112308Z 17020G25KT 39/12 A2995 RMK A01 T03940121  RH  020%=      5-min Rain = 0
KPA1 112309Z 17024KT 40/12 A2995 RMK A01 T03950118  RH  019%=      5-min Rain = 0
KPA1 112310Z 17020G27KT 40/12 A2995 RMK A01 T03960118  RH  019%=      5-min Rain = 0
KPA1 112311Z 17023KT 40/11 A2995 RMK A01 T03960114  RH  019%=      5-min Rain = 0
KPA1 112312Z 17022KT 40/12 A2995 RMK A01 T03950115  RH  019%=      5-min Rain = 0
KPA1 112313Z 17022G28KT 39/12 A2995 RMK A01 T03940116  RH  019%=      5-min Rain = 0
KPA1 112314Z 16022KT 39/11 A2995 RMK A01 T03940113  RH  019%=      5-min Rain = 0
KPA1 112315Z 16023KT 39/11 A2995 RMK A01 T03940113  RH  019%=      5-min Rain = 0
KPA1 112316Z 17021KT 39/11 A2995 RMK A01 T03930111  RH  019%=      5-min Rain = 0
KPA1 112317Z 17022G28KT 39/11 A2995 RMK A01 T03930112  RH  019%=      5-min Rain = 0
KPA1 112318Z 16025G31KT 39/11 A2995 RMK A01 T03910109  RH  018%=      5-min Rain = 0
KPA1 112319Z 18024KT 39/11 A2995 RMK A01 T03910111  RH  019%=      5-min Rain = 0
KPA1 112320Z 17026KT 39/11 A2995 RMK A01 T03930111  RH  019%=      5-min Rain = 0
KPA1 112321Z 18023KT 39/11 A2995 RMK A01 T03940113  RH  019%=      5-min Rain = 0
KPA1 112322Z 17024G30KT 39/11 A2995 RMK A01 T03940112  RH  019%=      5-min Rain = 0
KPA1 112323Z 17023KT 39/11 A2995 RMK A01 T03930111  RH  019%=      5-min Rain = 0
KPA1 112324Z 17024G29KT 39/11 A2995 RMK A01 T03920111  RH  019%=      5-min Rain = 0
KPA1 112325Z 16025KT 39/11 A2995 RMK A01 T03910110  RH  019%=      5-min Rain = 0
KPA1 112326Z 16024KT 39/11 A2995 RMK A01 T03910110  RH  019%=      5-min Rain = 0
KPA1 112327Z 16023KT 39/11 A2995 RMK A01 T03900109  RH  019%=      5-min Rain = 0
KPA1 112328Z 17023KT 39/11 A2995 RMK A01 T03880109  RH  019%=      5-min Rain = 0
KPA1 112329Z 17019KT 39/11 A2995 RMK A01 T03880111  RH  019%=      5-min Rain = 0
KPA1 112330Z 17018KT 39/11 A2995 RMK A01 T03870112  RH  019%=      5-min Rain = 0
KPA1 112331Z 17021KT 39/11 A2995 RMK A01 T03860112  RH  019%=      5-min Rain = 0
KPA1 112332Z 17021KT 39/11 A2995 RMK A01 T03860109  RH  019%=      5-min Rain = 0
KPA1 112333Z 17018KT 39/11 A2995 RMK A01 T03860111  RH  019%=      5-min Rain = 0
KPA1 112334Z 18020KT 38/11 A2994 RMK A01 T03840112  RH  020%=      5-min Rain = 0
KPA1 112335Z 17016KT 38/11 A2994 RMK A01 T03830111  RH  020%=      5-min Rain = 0
KPA1 112336Z 17020KT 38/11 A2994 RMK A01 T03820111  RH  020%=      5-min Rain = 0
KPA1 112337Z 17023KT 38/11 A2994 RMK A01 T03830108  RH  019%=      5-min Rain = 0
KPA1 112338Z 17019KT 38/11 A2994 RMK A01 T03830108  RH  019%=      5-min Rain = 0
KPA1 112339Z 17019G26KT 38/11 A2994 RMK A01 T03840110  RH  019%=      5-min Rain = 0
KPA1 112340Z 17019KT 38/11 A2994 RMK A01 T03830110  RH  019%=      5-min Rain = 0
KPA1 112341Z 17020KT 38/11 A2994 RMK A01 T03820107  RH  019%=      5-min Rain = 0
KPA1 112342Z 17019KT 38/11 A2994 RMK A01 T03830108  RH  019%=      5-min Rain = 0
KPA1 112343Z 17018KT 38/11 A2995 RMK A01 T03820110  RH  020%=      5-min Rain = 0
KPA1 112344Z 17018G23KT 38/11 A2995 RMK A01 T03810110  RH  020%=      5-min Rain = 0
KPA1 112345Z 17018KT 38/11 A2995 RMK A01 T03800109  RH  020%=      5-min Rain = 0
KPA1 112346Z 18016KT 38/11 A2995 RMK A01 T03800111  RH  020%=      5-min Rain = 0
KPA1 112347Z 18018KT 38/11 A2995 RMK A01 T03790112  RH  020%=      5-min Rain = 0
KPA1 112348Z 18017KT 38/11 A2995 RMK A01 T03780112  RH  020%=      5-min Rain = 0
KPA1 112349Z 17019KT 38/11 A2995 RMK A01 T03770113  RH  020%=      5-min Rain = 0
KPA1 112350Z 17019KT 38/11 A2995 RMK A01 T03780112  RH  020%=      5-min Rain = 0
KPA1 112351Z 18015KT 38/12 A2995 RMK A01 T03810116  RH  020%=      5-min Rain = 0
KPA1 112352Z 18015KT 38/12 A2995 RMK A01 T03820119  RH  021%=      5-min Rain = 0
KPA1 112353Z 18014KT 38/12 A2995 RMK A01 T03830122  RH  021%=      5-min Rain = 0
KPA1 112354Z 18015KT 38/12 A2995 RMK A01 T03820120  RH  021%=      5-min Rain = 0
KPA1 112355Z 18016G23KT 38/12 A2995 RMK A01 T03800120  RH  021%=      5-min Rain = 0
KPA1 112356Z 18018KT 38/12 A2995 RMK A01 T03800117  RH  021%=      5-min Rain = 0
KPA1 112357Z 18015KT 38/12 A2995 RMK A01 T03810122  RH  021%=      5-min Rain = 0
KPA1 112358Z 18016KT 38/12 A2995 RMK A01 T03800123  RH  022%=      5-min Rain = 0
KPA1 112359Z 18018KT 38/12 A2995 RMK A01 T03770122  RH  022%=      5-min Rain = 0
KPA1 120000Z 18018KT 38/12 A2995 RMK A01 T03750122  RH  022%=      5-min Rain = 0
KPA1 120001Z 18017KT 37/12 A2995 RMK A01 T03730123  RH  022%=      5-min Rain = 0
KPA1 120002Z 18017KT 37/12 A2994 RMK A01 T03720124  RH  023%=      5-min Rain = 0
KPA1 120003Z 18017KT 37/12 A2994 RMK A01 T03710124  RH  023%=      5-min Rain = 0
KPA1 120004Z 18014KT 37/13 A2994 RMK A01 T03710125  RH  023%=      5-min Rain = 0
KPA1 120005Z 18016KT 37/13 A2994 RMK A01 T03710125  RH  023%=      5-min Rain = 0
KPA1 120006Z 18017KT 37/12 A2994 RMK A01 T03700123  RH  023%=      5-min Rain = 0
KPA1 120007Z 18017G22KT 37/12 A2994 RMK A01 T03700120  RH  022%=      5-min Rain = 0
KPA1 120008Z 18018KT 37/12 A2994 RMK A01 T03700118  RH  022%=      5-min Rain = 0
KPA1 120009Z 18018KT 37/12 A2994 RMK A01 T03710120  RH  022%=      5-min Rain = 0
KPA1 120010Z 18017KT 37/12 A2994 RMK A01 T03700121  RH  022%=      5-min Rain = 0
KPA1 120011Z 18016KT 37/12 A2994 RMK A01 T03700122  RH  023%=      5-min Rain = 0
KPA1 120012Z 18016KT 37/12 A2995 RMK A01 T03680123  RH  023%=      5-min Rain = 0
KPA1 120013Z 18012KT 37/12 A2995 RMK A01 T03670123  RH  023%=      5-min Rain = 0
KPA1 120014Z 18012KT 37/12 A2995 RMK A01 T03670124  RH  023%=      5-min Rain = 0
KPA1 120015Z 18013G18KT 37/12 A2995 RMK A01 T03660123  RH  023%=      5-min Rain = 0
KPA1 120016Z 21014KT 37/12 A2995 RMK A01 T03660123  RH  023%=      5-min Rain = 0
KPA1 120017Z 22017KT 37/11 A2996 RMK A01 T03650114  RH  022%=      5-min Rain = 0
KPA1 120018Z 24017KT 37/10 A2996 RMK A01 T03680102  RH  020%=      5-min Rain = 0
KPA1 120019Z 26017KT 37/10 A2996 RMK A01 T03710103  RH  020%=      5-min Rain = 0
KPA1 120020Z 28011G17KT 37/12 A2997 RMK A01 T03680124  RH  023%=      5-min Rain = 0
KPA1 120021Z 24005KT 35/13 A2997 RMK A01 T03530132  RH  027%=      5-min Rain = 0
KPA1 120022Z 31003G8KT 35/14 A2998 RMK A01 T03460135  RH  028%=      5-min Rain = 0
KPA1 120023Z 04010G19KT 34/13 A2998 RMK A01 T03420134  RH  029%=      5-min Rain = 0
KPA1 120024Z 05017G22KT 34/13 A2998 RMK A01 T03410132  RH  028%=      5-min Rain = 0
KPA1 120025Z 04014KT 34/14 A2998 RMK A01 T03390135  RH  029%=      5-min Rain = 0
KPA1 120026Z 03015KT 34/13 A2998 RMK A01 T03370130  RH  029%=      5-min Rain = 0
KPA1 120027Z 03016G22KT 34/13 A2998 RMK A01 T03390128  RH  028%=      5-min Rain = 0
KPA1 120028Z 05024KT 34/13 A2998 RMK A01 T03390132  RH  029%=      5-min Rain = 0
KPA1 120029Z 05017KT 34/13 A2998 RMK A01 T03380131  RH  029%=      5-min Rain = 0
KPA1 120030Z 03018KT 34/13 A2998 RMK A01 T03370134  RH  029%=      5-min Rain = 0
KPA1 120031Z 02017KT 34/13 A2998 RMK A01 T03350132  RH  029%=      5-min Rain = 0
KPA1 120032Z 03012KT 34/13 A2998 RMK A01 T03370129  RH  028%=      5-min Rain = 0
KPA1 120033Z 05009KT 34/13 A2998 RMK A01 T03390131  RH  029%=      5-min Rain = 0
KPA1 120034Z 06010KT 34/13 A2999 RMK A01 T03370134  RH  029%=      5-min Rain = 0
KPA1 120035Z 05008KT 33/14 A2999 RMK A01 T03340136  RH  030%=      5-min Rain = 0
KPA1 120036Z 01010G15KT 33/14 A2999 RMK A01 T03320136  RH  031%=      5-min Rain = 0
KPA1 120037Z 36010KT 33/13 A2999 RMK A01 T03340127  RH  028%=      5-min Rain = 0
KPA1 120038Z 02008KT 34/13 A30 RMK A01 T03390129  RH  028%=      5-min Rain = 0
KPA1 120039Z 00010KT 34/13 A30 RMK A01 T03400131  RH  028%=      5-min Rain = 0
KPA1 120040Z 36020G25KT 34/13 A30 RMK A01 T03390131  RH  029%=      5-min Rain = 0
KPA1 120041Z 35022KT 33/14 A3001 RMK A01 T03340137  RH  030%=      5-min Rain = 0
KPA1 120042Z 35014G19KT 32/14 A3001 RMK A01 T03230140  RH  033%=      5-min Rain = 0
KPA1 120043Z 02012KT 32/14 A30 RMK A01 T03170141  RH  034%=      5-min Rain = 0
KPA1 120044Z 02014G22KT 32/14 A30 RMK A01 T03150141  RH  035%=      5-min Rain = 0
KPA1 120045Z 01024G31KT 32/13 A30 RMK A01 T03180134  RH  033%=      5-min Rain = 0
KPA1 120046Z 02027KT 33/13 A3001 RMK A01 T03250132  RH  031%=      5-min Rain = 0
KPA1 120047Z 01024G29KT 33/14 A3001 RMK A01 T03250135  RH  032%=      5-min Rain = 0
KPA1 120048Z 03022G27KT 32/14 A3001 RMK A01 T03220139  RH  033%=      5-min Rain = 0
KPA1 120049Z 02025KT 32/14 A3001 RMK A01 T03170142  RH  035%=      5-min Rain = 0
KPA1 120050Z 03024G29KT 32/14 A3002 RMK A01 T03160142  RH  035%=      5-min Rain = 0
KPA1 120051Z 03028KT 32/14 A3002 RMK A01 T03150144  RH  035%=      5-min Rain = 0
KPA1 120052Z 03024KT 31/15 A3002 RMK A01 T03090149  RH  038%=      5-min Rain = 0
KPA1 120053Z 02020KT 30/15 A3002 RMK A01 T03020152  RH  040%=      5-min Rain = 0
KPA1 120054Z 02017KT 30/15 A3002 RMK A01 T02990154  RH  041%=      5-min Rain = 0
KPA1 120055Z 02015KT 30/16 A3001 RMK A01 T02950158  RH  043%=      5-min Rain = 0
KPA1 120056Z 04018KT 29/16 A3001 RMK A01 T02930158  RH  044%=      5-min Rain = 0
KPA1 120057Z 06014G19KT 29/16 A30 RMK A01 T02940157  RH  043%=      5-min Rain = 0
KPA1 120058Z 07022G30KT 30/16 A30 RMK A01 T02970155  RH  042%=      5-min Rain = 0
KPA1 120059Z 06021G26KT 31/15 A30 RMK A01 T03100151  RH  038%=      5-min Rain = 0
KPA1 120100Z 06024KT 31/15 A30 RMK A01 T03140149  RH  037%=      5-min Rain = 0
KPA1 120101Z 06016G21KT 32/15 A30 RMK A01 T03160153  RH  037%=      5-min Rain = 0
KPA1 120102Z 06010KT 31/15 A3001 RMK A01 T03130152  RH  038%=      5-min Rain = 0
KPA1 120103Z 08008KT 32/15 A3001 RMK A01 T03170147  RH  036%=      5-min Rain = 0
KPA1 120104Z 07016G21KT 32/16 A3001 RMK A01 T03200155  RH  037%=      5-min Rain = 0
KPA1 120105Z 08017KT 31/16 A30 RMK A01 T03120161  RH  040%=      5-min Rain = 0
KPA1 120106Z 07015G24KT 31/15 A30 RMK A01 T03050151  RH  039%=      5-min Rain = 0
KPA1 120107Z 11006KT 31/14 A30 RMK A01 T03140135  RH  034%=      5-min Rain = 0
KPA1 120108Z 10008KT 33/15 A30 RMK A01 T03250148  RH  034%=      5-min Rain = 0
KPA1 120109Z 14007KT 32/15 A30 RMK A01 T03210153  RH  036%=      5-min Rain = 0
KPA1 120110Z 16009G14KT 32/14 A30 RMK A01 T03200137  RH  033%=      5-min Rain = 0
KPA1 120111Z 17006KT 34/13 A2999 RMK A01 T03360126  RH  028%=      5-min Rain = 0
KPA1 120112Z 19007KT 35/13 A2999 RMK A01 T03480134  RH  028%=      5-min Rain = 0
KPA1 120113Z 19006KT 35/14 A2999 RMK A01 T03490138  RH  028%=      5-min Rain = 0
KPA1 120114Z 16010KT 35/14 A2999 RMK A01 T03460141  RH  029%=      5-min Rain = 0
KPA1 120115Z 16011KT 34/15 A2999 RMK A01 T03410147  RH  031%=      5-min Rain = 0
KPA1 120116Z 17009KT 33/15 A2999 RMK A01 T03330152  RH  034%=      5-min Rain = 0
KPA1 120117Z 16012KT 33/15 A2999 RMK A01 T03270153  RH  035%=      5-min Rain = 0
KPA1 120118Z 16013KT 33/15 A2999 RMK A01 T03250152  RH  035%=      5-min Rain = 0
KPA1 120119Z 16013KT 32/15 A2999 RMK A01 T03240152  RH  035%=      5-min Rain = 0
KPA1 120120Z 15014KT 32/16 A2999 RMK A01 T03220155  RH  037%=      5-min Rain = 0
KPA1 120121Z 15017KT 32/16 A2999 RMK A01 T03190157  RH  038%=      5-min Rain = 0
KPA1 120122Z 13017KT 31/16 A30 RMK A01 T03140159  RH  039%=      5-min Rain = 0
KPA1 120123Z 15016KT 31/16 A30 RMK A01 T03110160  RH  040%=      5-min Rain = 0
KPA1 120124Z 15020G25KT 31/16 A3001 RMK A01 T03080162  RH  042%=      5-min Rain = 0
KPA1 120125Z 13015KT 30/16 A30 RMK A01 T03020163  RH  043%=      5-min Rain = 0
KPA1 120126Z 13014KT 30/16 A30 RMK A01 T02980161  RH  044%=      5-min Rain = 0
KPA1 120127Z 13015KT 30/16 A30 RMK A01 T02980159  RH  043%=      5-min Rain = 0
KPA1 120128Z 13013KT 30/16 A30 RMK A01 T03010157  RH  042%=      5-min Rain = 0
KPA1 120129Z 13012KT 31/16 A30 RMK A01 T03050156  RH  041%=      5-min Rain = 0
KPA1 120130Z 14013KT 31/16 A30 RMK A01 T03080155  RH  040%=      5-min Rain = 0
KPA1 120131Z 15013KT 31/16 A30 RMK A01 T03100158  RH  040%=      5-min Rain = 0
KPA1 120132Z 15012KT 31/16 A30 RMK A01 T03090158  RH  040%=      5-min Rain = 0
KPA1 120133Z 17014KT 31/16 A30 RMK A01 T03090157  RH  040%=      5-min Rain = 0
KPA1 120134Z 16013G18KT 31/15 A30 RMK A01 T03130151  RH  037%=      5-min Rain = 0
KPA1 120135Z 15014G22KT 32/15 A30 RMK A01 T03190154  RH  037%=      5-min Rain = 0
KPA1 120136Z 15018KT 32/15 A30 RMK A01 T03190153  RH  037%=      5-min Rain = 0
KPA1 120137Z 15014KT 32/15 A30 RMK A01 T03190153  RH  037%=      5-min Rain = 0
KPA1 120138Z 16013KT 32/16 A30 RMK A01 T03180155  RH  037%=      5-min Rain = 0
KPA1 120139Z 16010KT 32/16 A30 RMK A01 T03160155  RH  038%=      5-min Rain = 0
KPA1 120140Z 17011KT 32/16 A30 RMK A01 T03150155  RH  038%=      5-min Rain = 0
KPA1 120141Z 17011KT 31/16 A30 RMK A01 T03140155  RH  038%=      5-min Rain = 0
KPA1 120142Z 17012KT 31/15 A30 RMK A01 T03140154  RH  038%=      5-min Rain = 0
KPA1 120143Z 16013KT 32/15 A30 RMK A01 T03150152  RH  038%=      5-min Rain = 0
KPA1 120144Z 16012KT 32/15 A30 RMK A01 T03160151  RH  037%=      5-min Rain = 0
KPA1 120145Z 16012KT 32/15 A30 RMK A01 T03170153  RH  037%=      5-min Rain = 0
KPA1 120146Z 16011KT 32/16 A30 RMK A01 T03160155  RH  038%=      5-min Rain = 0
KPA1 120147Z 15010KT 31/16 A30 RMK A01 T03140156  RH  039%=      5-min Rain = 0
KPA1 120148Z 14011KT 31/16 A30 RMK A01 T03120158  RH  040%=      5-min Rain = 0
KPA1 120149Z 12012KT 31/16 A30 RMK A01 T03100160  RH  040%=      5-min Rain = 0
KPA1 120150Z 11012KT 31/16 A30 RMK A01 T03070160  RH  041%=      5-min Rain = 0
KPA1 120151Z 11012KT 31/16 A30 RMK A01 T03070158  RH  041%=      5-min Rain = 0
KPA1 120152Z 09011KT 31/16 A30 RMK A01 T03070159  RH  041%=      5-min Rain = 0
KPA1 120153Z 09011KT 31/16 A3001 RMK A01 T03050164  RH  043%=      5-min Rain = 0
KPA1 120154Z 09019KT 30/16 A3001 RMK A01 T03010163  RH  043%=      5-min Rain = 0
KPA1 120155Z 09016KT 29/16 A3001 RMK A01 T02940159  RH  044%=      5-min Rain = 0
KPA1 120156Z 09016KT 29/16 A3001 RMK A01 T02870160  RH  046%=      5-min Rain = 0
KPA1 120157Z 09014KT 28/16 A3001 RMK A01 T02820162  RH  048%=      5-min Rain = 0
KPA1 120158Z 09013KT 28/16 A30 RMK A01 T02790163  RH  049%=      5-min Rain = 0
KPA1 120159Z 10014KT 28/16 A30 RMK A01 T02770163  RH  050%=      5-min Rain = 0
KPA1 120200Z 11014KT 28/16 A30 RMK A01 T02760163  RH  050%=      5-min Rain = 0
KPA1 120201Z 11013KT 28/16 A3001 RMK A01 T02760164  RH  050%=      5-min Rain = 0
KPA1 120202Z 10014KT 28/17 A3001 RMK A01 T02750165  RH  051%=      5-min Rain = 0
KPA1 120203Z 10013KT 27/17 A3001 RMK A01 T02740165  RH  051%=      5-min Rain = 0
KPA1 120204Z 09014KT 27/17 A3001 RMK A01 T02740166  RH  052%=      5-min Rain = 0
KPA1 120205Z 09016KT 27/17 A3001 RMK A01 T02720167  RH  053%=      5-min Rain = 0
KPA1 120206Z 09015KT 27/17 A3001 RMK A01 T02690168  RH  054%=      5-min Rain = 0
KPA1 120207Z 09015KT 27/17 A3001 RMK A01 T02660169  RH  055%=      5-min Rain = 0
KPA1 120208Z 10015KT 26/17 A3001 RMK A01 T02640169  RH  056%=      5-min Rain = 0
KPA1 120209Z 09015KT 26/17 A3001 RMK A01 T02630169  RH  056%=      5-min Rain = 0
KPA1 120210Z 09013KT 26/17 A3002 RMK A01 T02630169  RH  056%=      5-min Rain = 0
KPA1 120211Z 09016KT 26/17 A3002 RMK A01 T02630169  RH  056%=      5-min Rain = 0
KPA1 120212Z 10016KT 26/17 A3002 RMK A01 T02620168  RH  056%=      5-min Rain = 0
KPA1 120213Z 10017KT 26/17 A3002 RMK A01 T02620166  RH  056%=      5-min Rain = 0
KPA1 120214Z 11014KT 26/16 A3002 RMK A01 T02620164  RH  055%=      5-min Rain = 0
KPA1 120215Z 11014KT 26/16 A3002 RMK A01 T02630163  RH  054%=      5-min Rain = 0
KPA1 120216Z 10017KT 27/16 A3002 RMK A01 T02650161  RH  053%=      5-min Rain = 0
KPA1 120217Z 11017KT 27/16 A3002 RMK A01 T02670160  RH  052%=      5-min Rain = 0
KPA1 120218Z 10016KT 27/16 A3002 RMK A01 T02680161  RH  052%=      5-min Rain = 0
KPA1 120219Z 10016KT 27/16 A3002 RMK A01 T02670161  RH  052%=      5-min Rain = 0
KPA1 120220Z 11015KT 27/16 A3002 RMK A01 T02660160  RH  052%=      5-min Rain = 0
KPA1 120221Z 11013KT 27/16 A3001 RMK A01 T02650160  RH  053%=      5-min Rain = 0
KPA1 120222Z 11015KT 26/16 A3001 RMK A01 T02640160  RH  053%=      5-min Rain = 0
KPA1 120223Z 12013KT 26/16 A3001 RMK A01 T02630159  RH  053%=      5-min Rain = 0
KPA1 120224Z 12015KT 26/16 A3001 RMK A01 T02620159  RH  053%=      5-min Rain = 0
KPA1 120225Z 12014KT 26/16 A3001 RMK A01 T02610159  RH  053%=      5-min Rain = 0
KPA1 120226Z 12014KT 26/16 A3001 RMK A01 T02620158  RH  053%=      5-min Rain = 0
KPA1 120227Z 12013KT 26/16 A3001 RMK A01 T02620158  RH  053%=      5-min Rain = 0
KPA1 120228Z 12014KT 26/16 A3001 RMK A01 T02630156  RH  052%=      5-min Rain = 0
KPA1 120229Z 12015KT 26/16 A3001 RMK A01 T02640155  RH  051%=      5-min Rain = 0
KPA1 120230Z 12014KT 27/16 A3001 RMK A01 T02660155  RH  050%=      5-min Rain = 0
KPA1 120231Z 12014KT 27/15 A3001 RMK A01 T02660154  RH  050%=      5-min Rain = 0
KPA1 120232Z 13012G17KT 27/15 A3001 RMK A01 T02670154  RH  050%=      5-min Rain = 0
KPA1 120233Z 13013KT 27/15 A3001 RMK A01 T02660153  RH  050%=      5-min Rain = 0
KPA1 120234Z 13013KT 27/15 A3001 RMK A01 T02660153  RH  050%=      5-min Rain = 0
KPA1 120235Z 13012KT 27/15 A3001 RMK A01 T02660152  RH  050%=      5-min Rain = 0
KPA1 120236Z 13013KT 27/15 A3001 RMK A01 T02660151  RH  049%=      5-min Rain = 0
KPA1 120237Z 13012KT 27/15 A3001 RMK A01 T02650150  RH  049%=      5-min Rain = 0
KPA1 120238Z 13012KT 27/15 A3001 RMK A01 T02650151  RH  049%=      5-min Rain = 0
KPA1 120239Z 13012KT 26/15 A3002 RMK A01 T02640151  RH  050%=      5-min Rain = 0
KPA1 120240Z 13013KT 26/15 A3002 RMK A01 T02630150  RH  050%=      5-min Rain = 0
KPA1 120241Z 13013KT 26/15 A3002 RMK A01 T02630148  RH  049%=      5-min Rain = 0
KPA1 120242Z 13013KT 26/15 A3003 RMK A01 T02640148  RH  049%=      5-min Rain = 0
KPA1 120243Z 12014KT 27/15 A3003 RMK A01 T02650148  RH  049%=      5-min Rain = 0
KPA1 120244Z 12013KT 27/15 A3003 RMK A01 T02650149  RH  049%=      5-min Rain = 0
KPA1 120245Z 12012KT 27/15 A3003 RMK A01 T02650149  RH  049%=      5-min Rain = 0
KPA1 120246Z 12011KT 26/15 A3003 RMK A01 T02640151  RH  050%=      5-min Rain = 0
KPA1 120247Z 12011KT 26/15 A3003 RMK A01 T02620152  RH  051%=      5-min Rain = 0
KPA1 120248Z 12010KT 26/15 A3003 RMK A01 T02600153  RH  052%=      5-min Rain = 0
KPA1 120249Z 12009KT 26/15 A3003 RMK A01 T02580154  RH  053%=      5-min Rain = 0
KPA1 120250Z 12010KT 26/15 A3003 RMK A01 T02560154  RH  053%=      5-min Rain = 0
KPA1 120251Z 13009KT 26/16 A3003 RMK A01 T02560155  RH  054%=      5-min Rain = 0
KPA1 120252Z 13009KT 26/16 A3003 RMK A01 T02550155  RH  054%=      5-min Rain = 0
KPA1 120253Z 13008KT 26/16 A3003 RMK A01 T02550155  RH  054%=      5-min Rain = 0
KPA1 120254Z 12007KT 25/16 A3003 RMK A01 T02540155  RH  054%=      5-min Rain = 0
KPA1 120255Z 12008KT 26/16 A3003 RMK A01 T02550156  RH  054%=      5-min Rain = 0
KPA1 120256Z 12007KT 25/16 A3003 RMK A01 T02540156  RH  054%=      5-min Rain = 0
KPA1 120257Z 13007KT 25/16 A3003 RMK A01 T02530156  RH  055%=      5-min Rain = 0
KPA1 120258Z 13007KT 25/16 A3003 RMK A01 T02530156  RH  055%=      5-min Rain = 0
KPA1 120259Z 13008KT 25/16 A3003 RMK A01 T02520156  RH  055%=      5-min Rain = 0
KPA1 120300Z 13008KT 25/16 A3003 RMK A01 T02520156  RH  055%=      5-min Rain = 0
KPA1 120301Z 12007KT 25/16 A3003 RMK A01 T02520156  RH  055%=      5-min Rain = 0
KPA1 120302Z 13008KT 25/16 A3003 RMK A01 T02520156  RH  055%=      5-min Rain = 0
KPA1 120303Z 13007KT 25/16 A3003 RMK A01 T02520157  RH  056%=      5-min Rain = 0
KPA1 120304Z 13006KT 25/16 A3003 RMK A01 T02510156  RH  055%=      5-min Rain = 0
KPA1 120305Z 13006KT 25/16 A3003 RMK A01 T02510156  RH  055%=      5-min Rain = 0
KPA1 120306Z 13006KT 25/16 A3003 RMK A01 T02520156  RH  055%=      5-min Rain = 0
KPA1 120307Z 14006KT 25/16 A3003 RMK A01 T02510155  RH  055%=      5-min Rain = 0
KPA1 120308Z 14007KT 25/16 A3003 RMK A01 T02520155  RH  055%=      5-min Rain = 0
KPA1 120309Z 14007KT 25/15 A3002 RMK A01 T02520154  RH  054%=      5-min Rain = 0
KPA1 120310Z 14007KT 25/16 A3002 RMK A01 T02530155  RH  054%=      5-min Rain = 0
KPA1 120311Z 14007KT 25/16 A3002 RMK A01 T02530155  RH  055%=      5-min Rain = 0
KPA1 120312Z 14008KT 25/16 A3003 RMK A01 T02520155  RH  055%=      5-min Rain = 0
KPA1 120313Z 15007KT 25/15 A3003 RMK A01 T02520154  RH  055%=      5-min Rain = 0
KPA1 120314Z 15007KT 25/16 A3002 RMK A01 T02520155  RH  055%=      5-min Rain = 0
KPA1 120315Z 15007KT 25/16 A3002 RMK A01 T02510155  RH  055%=      5-min Rain = 0
KPA1 120316Z 15006KT 25/16 A3002 RMK A01 T02510155  RH  055%=      5-min Rain = 0
KPA1 120317Z 15006KT 25/16 A3002 RMK A01 T02500155  RH  056%=      5-min Rain = 0
KPA1 120318Z 16006KT 25/16 A3002 RMK A01 T02490155  RH  056%=      5-min Rain = 0
KPA1 120319Z 15005KT 25/16 A3002 RMK A01 T02490155  RH  056%=      5-min Rain = 0
KPA1 120320Z 15005KT 25/16 A3002 RMK A01 T02490155  RH  056%=      5-min Rain = 0
KPA1 120321Z 15006KT 25/16 A3002 RMK A01 T02490155  RH  056%=      5-min Rain = 0
KPA1 120322Z 15006KT 25/16 A3002 RMK A01 T02490155  RH  056%=      5-min Rain = 0
KPA1 120323Z 15005KT 25/15 A3002 RMK A01 T02490154  RH  056%=      5-min Rain = 0
KPA1 120324Z 16005KT 25/16 A3002 RMK A01 T02500155  RH  055%=      5-min Rain = 0
KPA1 120325Z 17004KT 25/15 A3002 RMK A01 T02500154  RH  055%=      5-min Rain = 0
KPA1 120326Z 19005KT 25/16 A3002 RMK A01 T02510155  RH  055%=      5-min Rain = 0
KPA1 120327Z 21004KT 25/16 A3002 RMK A01 T02510155  RH  055%=      5-min Rain = 0
KPA1 120328Z 23005KT 25/16 A3003 RMK A01 T02510156  RH  056%=      5-min Rain = 0
KPA1 120329Z 24007KT 25/16 A3003 RMK A01 T02500156  RH  056%=      5-min Rain = 0
KPA1 120330Z 25010KT 25/16 A3004 RMK A01 T02500156  RH  056%=      5-min Rain = 0
KPA1 120331Z 27014G19KT 25/16 A3005 RMK A01 T02500156  RH  056%=      5-min Rain = 0
KPA1 120332Z 29021KT 25/16 A3006 RMK A01 T02520157  RH  055%=      5-min Rain = 0
KPA1 120333Z 28023G28KT 26/16 A3006 RMK A01 T02580157  RH  054%=      5-min Rain = 0
KPA1 120334Z 27021G26KT 26/16 A3007 RMK A01 T02630156  RH  052%=      5-min Rain = 0
KPA1 120335Z 27017G22KT 27/16 A3007 RMK A01 T02670156  RH  051%=      5-min Rain = 0
KPA1 120336Z 27018KT 27/16 A3007 RMK A01 T02710158  RH  050%=      5-min Rain = 0
KPA1 120337Z 26017KT 27/16 A3008 RMK A01 T02720164  RH  052%=      5-min Rain = 0.01
KPA1 120338Z 27018KT 27/17 A3008 RMK A01 T02680167  RH  054%=      5-min Rain = 0.01
KPA1 120339Z 27019KT 26/17 A3009 RMK A01 T02630169  RH  056%=      5-min Rain = 0.01
KPA1 120340Z 27019G24KT 26/17 A301 RMK A01 T02600169  RH  057%=      5-min Rain = 0
KPA1 120341Z 26018KT 27/17 A301 RMK A01 T02650170  RH  056%=      5-min Rain = 0
KPA1 120342Z 25021KT 27/17 A3011 RMK A01 T02700169  RH  054%=      5-min Rain = 0
KPA1 120343Z 26022KT 27/17 A3011 RMK A01 T02710171  RH  054%=      5-min Rain = 0.01
KPA1 120344Z 25020G25KT 27/17 A3012 RMK A01 T02690174  RH  056%=      5-min Rain = 0
KPA1 120345Z 26020G25KT 27/17 A3013 RMK A01 T02670174  RH  056%=      5-min Rain = 0
KPA1 120346Z 26017KT 27/18 A3013 RMK A01 T02670176  RH  057%=      5-min Rain = 0
KPA1 120347Z 26018KT 27/18 A3013 RMK A01 T02690176  RH  057%=      5-min Rain = 0
KPA1 120348Z 26021KT 27/18 A3014 RMK A01 T02680177  RH  058%=      5-min Rain = 0
KPA1 120349Z 26018G23KT 27/17 A3014 RMK A01 T02650173  RH  057%=      5-min Rain = 0
KPA1 120350Z 28016KT 27/18 A3014 RMK A01 T02650175  RH  058%=      5-min Rain = 0
KPA1 120351Z 27016KT 27/17 A3014 RMK A01 T02660170  RH  056%=      5-min Rain = 0
KPA1 120352Z 25018KT 27/17 A3014 RMK A01 T02670169  RH  055%=      5-min Rain = 0
KPA1 120353Z 26015KT 27/17 A3015 RMK A01 T02680165  RH  053%=      5-min Rain = 0
KPA1 120354Z 27013KT 27/17 A3015 RMK A01 T02650169  RH  056%=      5-min Rain = 0.01
KPA1 120355Z 27014KT 26/17 A3015 RMK A01 T02610170  RH  057%=      5-min Rain = 0
KPA1 120356Z 28014KT 26/17 A3015 RMK A01 T02590167  RH  057%=      5-min Rain = 0
KPA1 120357Z 28013KT 26/17 A3015 RMK A01 T02590168  RH  057%=      5-min Rain = 0.01
KPA1 120358Z 27012KT 26/17 A3015 RMK A01 T02580166  RH  057%=      5-min Rain = 0
KPA1 120359Z 28015KT 26/16 A3015 RMK A01 T02600160  RH  054%=      5-min Rain = 0
KPA1 120400Z 27015KT 27/15 A3015 RMK A01 T02660153  RH  050%=      5-min Rain = 0
KPA1 120401Z 25013KT 27/16 A3015 RMK A01 T02710159  RH  050%=      5-min Rain = 0
KPA1 120402Z 26010KT 27/16 A3015 RMK A01 T02660156  RH  051%=      5-min Rain = 0
KPA1 120403Z 26010KT 27/15 A3015 RMK A01 T02670152  RH  049%=      5-min Rain = 0
KPA1 120404Z 26010KT 27/15 A3015 RMK A01 T02700154  RH  049%=      5-min Rain = 0
KPA1 120405Z 27008KT 27/15 A3015 RMK A01 T02730148  RH  046%=      5-min Rain = 0
KPA1 120406Z 25011KT 28/15 A3015 RMK A01 T02780152  RH  046%=      5-min Rain = 0
KPA1 120407Z 25015KT 28/15 A3015 RMK A01 T02780151  RH  046%=      5-min Rain = 0
KPA1 120408Z 27014KT 28/14 A3015 RMK A01 T02810144  RH  043%=      5-min Rain = 0
KPA1 120409Z 28015KT 29/15 A3015 RMK A01 T02860147  RH  043%=      5-min Rain = 0
KPA1 120410Z 27013KT 28/15 A3015 RMK A01 T02820154  RH  046%=      5-min Rain = 0
KPA1 120411Z 26015KT 28/15 A3015 RMK A01 T02760149  RH  046%=      5-min Rain = 0
KPA1 120412Z 27011KT 28/15 A3015 RMK A01 T02790150  RH  045%=      5-min Rain = 0
KPA1 120413Z 28011KT 28/16 A3015 RMK A01 T02780162  RH  049%=      5-min Rain = 0
KPA1 120414Z 28012KT 27/16 A3015 RMK A01 T02690162  RH  052%=      5-min Rain = 0
KPA1 120415Z 29009KT 27/16 A3015 RMK A01 T02660158  RH  052%=      5-min Rain = 0
KPA1 120416Z 30008KT 27/16 A3015 RMK A01 T02680161  RH  052%=      5-min Rain = 0
KPA1 120417Z 30008KT 27/16 A3014 RMK A01 T02680160  RH  051%=      5-min Rain = 0
KPA1 120418Z 30006KT 27/16 A3014 RMK A01 T02680163  RH  052%=      5-min Rain = 0
KPA1 120419Z 28005KT 27/16 A3014 RMK A01 T02680159  RH  051%=      5-min Rain = 0
KPA1 120420Z 28006KT 27/16 A3014 RMK A01 T02700156  RH  049%=      5-min Rain = 0
KPA1 120421Z 28007KT 27/16 A3014 RMK A01 T02720161  RH  051%=      5-min Rain = 0
KPA1 120422Z 26007KT 27/16 A3014 RMK A01 T02730159  RH  050%=      5-min Rain = 0
KPA1 120423Z 24006KT 28/16 A3014 RMK A01 T02770159  RH  048%=      5-min Rain = 0
KPA1 120424Z 25007KT 28/16 A3013 RMK A01 T02780158  RH  048%=      5-min Rain = 0
KPA1 120425Z 25008KT 28/16 A3013 RMK A01 T02780155  RH  047%=      5-min Rain = 0
KPA1 120426Z 25007KT 28/15 A3013 RMK A01 T02780152  RH  046%=      5-min Rain = 0
KPA1 120427Z 24006KT 28/15 A3013 RMK A01 T02800151  RH  045%=      5-min Rain = 0
KPA1 120428Z 26005KT 29/15 A3013 RMK A01 T02850151  RH  044%=      5-min Rain = 0
KPA1 120429Z 23005KT 29/15 A3013 RMK A01 T02930149  RH  042%=      5-min Rain = 0
KPA1 120430Z 23006KT 29/16 A3013 RMK A01 T02910155  RH  044%=      5-min Rain = 0
KPA1 120431Z 26005KT 28/16 A3012 RMK A01 T02830156  RH  046%=      5-min Rain = 0
KPA1 120432Z 30005KT 28/16 A3012 RMK A01 T02780156  RH  048%=      5-min Rain = 0
KPA1 120433Z 32005KT 28/15 A3012 RMK A01 T02770154  RH  047%=      5-min Rain = 0
KPA1 120434Z 31003KT 28/16 A3012 RMK A01 T02780157  RH  048%=      5-min Rain = 0
KPA1 120435Z 31002KT 28/15 A3012 RMK A01 T02780151  RH  046%=      5-min Rain = 0
KPA1 120436Z 31000KT 28/15 A3012 RMK A01 T02810145  RH  043%=      5-min Rain = 0
KPA1 120437Z 30000KT 28/14 A3011 RMK A01 T02840143  RH  042%=      5-min Rain = 0
KPA1 120438Z 14001KT 29/14 A3011 RMK A01 T02860142  RH  041%=      5-min Rain = 0
KPA1 120439Z 15001KT 29/14 A3011 RMK A01 T02880142  RH  041%=      5-min Rain = 0
KPA1 120440Z 32000KT 29/15 A3011 RMK A01 T02890146  RH  042%=      5-min Rain = 0
KPA1 120441Z 31003KT 29/14 A3011 RMK A01 T02910139  RH  039%=      5-min Rain = 0
KPA1 120442Z 30006KT 29/16 A3011 RMK A01 T02940161  RH  045%=      5-min Rain = 0
KPA1 120443Z 29005KT 29/16 A3011 RMK A01 T02890164  RH  047%=      5-min Rain = 0
KPA1 120444Z 29006KT 29/16 A3011 RMK A01 T02860160  RH  046%=      5-min Rain = 0
KPA1 120445Z 29008KT 28/17 A3011 RMK A01 T02830168  RH  050%=      5-min Rain = 0
KPA1 120446Z 29007KT 28/17 A3011 RMK A01 T02780169  RH  052%=      5-min Rain = 0
KPA1 120447Z 31007KT 28/17 A3011 RMK A01 T02750169  RH  052%=      5-min Rain = 0
KPA1 120448Z 32006KT 27/17 A3011 RMK A01 T02730172  RH  054%=      5-min Rain = 0
KPA1 120449Z 31007KT 27/17 A3011 RMK A01 T02710168  RH  053%=      5-min Rain = 0
KPA1 120450Z 31008KT 27/16 A3011 RMK A01 T02720158  RH  050%=      5-min Rain = 0
KPA1 120451Z 31008KT 28/15 A3011 RMK A01 T02840146  RH  043%=      5-min Rain = 0
KPA1 120452Z 32007KT 30/15 A3011 RMK A01 T02950148  RH  041%=      5-min Rain = 0
KPA1 120453Z 31007KT 30/15 A301 RMK A01 T02980153  RH  041%=      5-min Rain = 0
KPA1 120454Z 31007KT 30/16 A301 RMK A01 T02960158  RH  043%=      5-min Rain = 0
KPA1 120455Z 30006KT 29/16 A301 RMK A01 T02920157  RH  044%=      5-min Rain = 0
KPA1 120456Z 31006KT 29/16 A301 RMK A01 T02900157  RH  044%=      5-min Rain = 0
KPA1 120457Z 31007KT 29/16 A301 RMK A01 T02890156  RH  045%=      5-min Rain = 0
KPA1 120458Z 31007KT 29/16 A301 RMK A01 T02880156  RH  045%=      5-min Rain = 0
KPA1 120459Z 30008KT 29/16 A301 RMK A01 T02880158  RH  045%=      5-min Rain = 0

Page generated in 0.0712 seconds.